<?xml version="1.0" encoding="UTF-8"?>
<gpx version="1.0" creator="GPSBabel - http://www.gpsbabel.org" xmlns="http://www.topografix.com/GPX/1/0">
  <time>2019-07-28T20:02:40.789Z</time>
  <bounds minlat="35.944770377" minlon="-106.581238570" maxlat="35.979931900" maxlon="-106.520238839"/>
  <wpt lat="35.974360778" lon="-106.569619602">
    <ele>0.000</ele>
    <name>Valle San Antonio</name>
    <cmt>Valle San Antonio</cmt>
    <desc>Valle San Antonio</desc>
  </wpt>
  <wpt lat="35.973401454" lon="-106.578674914">
    <ele>0.000</ele>
    <name>San Antonio Creek</name>
    <cmt>San Antonio Creek</cmt>
    <desc>San Antonio Creek</desc>
  </wpt>
  <wpt lat="35.950352656" lon="-106.520238839">
    <ele>0.000</ele>
    <name>Valle Jaramillo</name>
    <cmt>Valle Jaramillo</cmt>
    <desc>Valle Jaramillo</desc>
  </wpt>
  <wpt lat="35.944770377" lon="-106.552727443">
    <ele>0.000</ele>
    <name>San Luis Creek</name>
    <cmt>San Luis Creek</cmt>
    <desc>San Luis Creek</desc>
  </wpt>
  <trk>
    <name>Valles Caldera-VC09 Valle San Antonio Hike.Pat.2019-07-25</name>
    <trkseg>
      <trkpt lat="35.975033780" lon="-106.559336520">
        <ele>2571.000</ele>
        <time>2019-07-25T17:16:23Z</time>
      </trkpt>
      <trkpt lat="35.975051470" lon="-106.559379690">
        <ele>2573.000</ele>
        <time>2019-07-25T17:17:16Z</time>
      </trkpt>
      <trkpt lat="35.975047550" lon="-106.559429600">
        <ele>2573.000</ele>
        <time>2019-07-25T17:17:21Z</time>
      </trkpt>
      <trkpt lat="35.975038330" lon="-106.559476340">
        <ele>2573.000</ele>
        <time>2019-07-25T17:17:26Z</time>
      </trkpt>
      <trkpt lat="35.975021930" lon="-106.559517710">
        <ele>2573.000</ele>
        <time>2019-07-25T17:17:32Z</time>
      </trkpt>
      <trkpt lat="35.975002350" lon="-106.559564800">
        <ele>2573.000</ele>
        <time>2019-07-25T17:17:37Z</time>
      </trkpt>
      <trkpt lat="35.974974290" lon="-106.559603410">
        <ele>2574.000</ele>
        <time>2019-07-25T17:18:00Z</time>
      </trkpt>
      <trkpt lat="35.974952030" lon="-106.559641820">
        <ele>2575.000</ele>
        <time>2019-07-25T17:18:05Z</time>
      </trkpt>
      <trkpt lat="35.974940620" lon="-106.559696330">
        <ele>2574.000</ele>
        <time>2019-07-25T17:18:10Z</time>
      </trkpt>
      <trkpt lat="35.974927500" lon="-106.559749020">
        <ele>2574.000</ele>
        <time>2019-07-25T17:18:16Z</time>
      </trkpt>
      <trkpt lat="35.974916450" lon="-106.559800040">
        <ele>2572.000</ele>
        <time>2019-07-25T17:18:21Z</time>
      </trkpt>
      <trkpt lat="35.974931360" lon="-106.559849680">
        <ele>2571.000</ele>
        <time>2019-07-25T17:18:25Z</time>
      </trkpt>
      <trkpt lat="35.974936050" lon="-106.559903830">
        <ele>2571.000</ele>
        <time>2019-07-25T17:18:29Z</time>
      </trkpt>
      <trkpt lat="35.974936010" lon="-106.559948720">
        <ele>2571.000</ele>
        <time>2019-07-25T17:18:33Z</time>
      </trkpt>
      <trkpt lat="35.974935770" lon="-106.559999810">
        <ele>2572.000</ele>
        <time>2019-07-25T17:18:37Z</time>
      </trkpt>
      <trkpt lat="35.974948260" lon="-106.560042760">
        <ele>2571.000</ele>
        <time>2019-07-25T17:18:49Z</time>
      </trkpt>
      <trkpt lat="35.974958750" lon="-106.560093350">
        <ele>2571.000</ele>
        <time>2019-07-25T17:19:40Z</time>
      </trkpt>
      <trkpt lat="35.974971540" lon="-106.560136230">
        <ele>2570.000</ele>
        <time>2019-07-25T17:19:44Z</time>
      </trkpt>
      <trkpt lat="35.974977890" lon="-106.560180150">
        <ele>2571.000</ele>
        <time>2019-07-25T17:19:48Z</time>
      </trkpt>
      <trkpt lat="35.974986130" lon="-106.560228770">
        <ele>2571.000</ele>
        <time>2019-07-25T17:19:52Z</time>
      </trkpt>
      <trkpt lat="35.974990280" lon="-106.560272990">
        <ele>2571.000</ele>
        <time>2019-07-25T17:19:55Z</time>
      </trkpt>
      <trkpt lat="35.974995910" lon="-106.560327040">
        <ele>2572.000</ele>
        <time>2019-07-25T17:19:59Z</time>
      </trkpt>
      <trkpt lat="35.975009260" lon="-106.560381740">
        <ele>2573.000</ele>
        <time>2019-07-25T17:20:04Z</time>
      </trkpt>
      <trkpt lat="35.975015050" lon="-106.560434730">
        <ele>2574.000</ele>
        <time>2019-07-25T17:20:08Z</time>
      </trkpt>
      <trkpt lat="35.975021180" lon="-106.560485170">
        <ele>2575.000</ele>
        <time>2019-07-25T17:20:12Z</time>
      </trkpt>
      <trkpt lat="35.975033160" lon="-106.560531150">
        <ele>2576.000</ele>
        <time>2019-07-25T17:20:16Z</time>
      </trkpt>
      <trkpt lat="35.975039420" lon="-106.560588280">
        <ele>2576.000</ele>
        <time>2019-07-25T17:20:20Z</time>
      </trkpt>
      <trkpt lat="35.975052060" lon="-106.560640410">
        <ele>2575.000</ele>
        <time>2019-07-25T17:20:24Z</time>
      </trkpt>
      <trkpt lat="35.975057860" lon="-106.560693270">
        <ele>2575.000</ele>
        <time>2019-07-25T17:20:28Z</time>
      </trkpt>
      <trkpt lat="35.975051270" lon="-106.560745670">
        <ele>2576.000</ele>
        <time>2019-07-25T17:20:46Z</time>
      </trkpt>
      <trkpt lat="35.975050160" lon="-106.560790460">
        <ele>2576.000</ele>
        <time>2019-07-25T17:20:55Z</time>
      </trkpt>
      <trkpt lat="35.975059310" lon="-106.560835830">
        <ele>2575.000</ele>
        <time>2019-07-25T17:20:59Z</time>
      </trkpt>
      <trkpt lat="35.975059290" lon="-106.560882930">
        <ele>2575.000</ele>
        <time>2019-07-25T17:21:04Z</time>
      </trkpt>
      <trkpt lat="35.975074470" lon="-106.560936220">
        <ele>2574.000</ele>
        <time>2019-07-25T17:21:09Z</time>
      </trkpt>
      <trkpt lat="35.975084690" lon="-106.560980910">
        <ele>2575.000</ele>
        <time>2019-07-25T17:21:14Z</time>
      </trkpt>
      <trkpt lat="35.975092760" lon="-106.561030340">
        <ele>2574.000</ele>
        <time>2019-07-25T17:21:18Z</time>
      </trkpt>
      <trkpt lat="35.975091210" lon="-106.561081640">
        <ele>2574.000</ele>
        <time>2019-07-25T17:21:23Z</time>
      </trkpt>
      <trkpt lat="35.975103110" lon="-106.561124060">
        <ele>2573.000</ele>
        <time>2019-07-25T17:21:27Z</time>
      </trkpt>
      <trkpt lat="35.975119720" lon="-106.561170220">
        <ele>2573.000</ele>
        <time>2019-07-25T17:21:32Z</time>
      </trkpt>
      <trkpt lat="35.975131170" lon="-106.561222090">
        <ele>2573.000</ele>
        <time>2019-07-25T17:21:37Z</time>
      </trkpt>
      <trkpt lat="35.975140470" lon="-106.561275620">
        <ele>2572.000</ele>
        <time>2019-07-25T17:21:42Z</time>
      </trkpt>
      <trkpt lat="35.975142310" lon="-106.561321780">
        <ele>2572.000</ele>
        <time>2019-07-25T17:21:45Z</time>
      </trkpt>
      <trkpt lat="35.975161020" lon="-106.561369700">
        <ele>2571.000</ele>
        <time>2019-07-25T17:21:50Z</time>
      </trkpt>
      <trkpt lat="35.975161870" lon="-106.561417920">
        <ele>2570.000</ele>
        <time>2019-07-25T17:21:54Z</time>
      </trkpt>
      <trkpt lat="35.975174960" lon="-106.561470190">
        <ele>2570.000</ele>
        <time>2019-07-25T17:21:59Z</time>
      </trkpt>
      <trkpt lat="35.975186030" lon="-106.561522170">
        <ele>2570.000</ele>
        <time>2019-07-25T17:22:03Z</time>
      </trkpt>
      <trkpt lat="35.975195170" lon="-106.561565670">
        <ele>2570.000</ele>
        <time>2019-07-25T17:22:08Z</time>
      </trkpt>
      <trkpt lat="35.975196220" lon="-106.561619320">
        <ele>2570.000</ele>
        <time>2019-07-25T17:22:13Z</time>
      </trkpt>
      <trkpt lat="35.975190690" lon="-106.561666700">
        <ele>2569.000</ele>
        <time>2019-07-25T17:22:19Z</time>
      </trkpt>
      <trkpt lat="35.975195540" lon="-106.561718930">
        <ele>2568.000</ele>
        <time>2019-07-25T17:22:25Z</time>
      </trkpt>
      <trkpt lat="35.975209420" lon="-106.561761480">
        <ele>2569.000</ele>
        <time>2019-07-25T17:22:30Z</time>
      </trkpt>
      <trkpt lat="35.975220010" lon="-106.561806820">
        <ele>2569.000</ele>
        <time>2019-07-25T17:22:35Z</time>
      </trkpt>
      <trkpt lat="35.975224790" lon="-106.561855910">
        <ele>2570.000</ele>
        <time>2019-07-25T17:22:40Z</time>
      </trkpt>
      <trkpt lat="35.975232690" lon="-106.561910240">
        <ele>2570.000</ele>
        <time>2019-07-25T17:22:45Z</time>
      </trkpt>
      <trkpt lat="35.975235940" lon="-106.561954880">
        <ele>2570.000</ele>
        <time>2019-07-25T17:22:49Z</time>
      </trkpt>
      <trkpt lat="35.975243930" lon="-106.561999320">
        <ele>2570.000</ele>
        <time>2019-07-25T17:22:54Z</time>
      </trkpt>
      <trkpt lat="35.975260230" lon="-106.562043430">
        <ele>2569.000</ele>
        <time>2019-07-25T17:22:59Z</time>
      </trkpt>
      <trkpt lat="35.975269310" lon="-106.562090110">
        <ele>2568.000</ele>
        <time>2019-07-25T17:23:05Z</time>
      </trkpt>
      <trkpt lat="35.975277660" lon="-106.562138300">
        <ele>2568.000</ele>
        <time>2019-07-25T17:23:10Z</time>
      </trkpt>
      <trkpt lat="35.975281830" lon="-106.562185950">
        <ele>2568.000</ele>
        <time>2019-07-25T17:23:15Z</time>
      </trkpt>
      <trkpt lat="35.975284170" lon="-106.562236150">
        <ele>2568.000</ele>
        <time>2019-07-25T17:23:20Z</time>
      </trkpt>
      <trkpt lat="35.975292550" lon="-106.562286050">
        <ele>2568.000</ele>
        <time>2019-07-25T17:23:26Z</time>
      </trkpt>
      <trkpt lat="35.975298230" lon="-106.562335680">
        <ele>2567.000</ele>
        <time>2019-07-25T17:23:31Z</time>
      </trkpt>
      <trkpt lat="35.975306300" lon="-106.562379020">
        <ele>2566.000</ele>
        <time>2019-07-25T17:23:35Z</time>
      </trkpt>
      <trkpt lat="35.975308760" lon="-106.562423320">
        <ele>2567.000</ele>
        <time>2019-07-25T17:23:43Z</time>
      </trkpt>
      <trkpt lat="35.975317210" lon="-106.562474630">
        <ele>2565.000</ele>
        <time>2019-07-25T17:24:22Z</time>
      </trkpt>
      <trkpt lat="35.975336440" lon="-106.562524190">
        <ele>2565.000</ele>
        <time>2019-07-25T17:24:26Z</time>
      </trkpt>
      <trkpt lat="35.975344640" lon="-106.562570680">
        <ele>2565.000</ele>
        <time>2019-07-25T17:24:30Z</time>
      </trkpt>
      <trkpt lat="35.975358230" lon="-106.562616280">
        <ele>2564.000</ele>
        <time>2019-07-25T17:24:34Z</time>
      </trkpt>
      <trkpt lat="35.975368430" lon="-106.562664010">
        <ele>2565.000</ele>
        <time>2019-07-25T17:24:39Z</time>
      </trkpt>
      <trkpt lat="35.975375010" lon="-106.562713490">
        <ele>2565.000</ele>
        <time>2019-07-25T17:24:43Z</time>
      </trkpt>
      <trkpt lat="35.975378780" lon="-106.562758310">
        <ele>2564.000</ele>
        <time>2019-07-25T17:24:47Z</time>
      </trkpt>
      <trkpt lat="35.975386390" lon="-106.562810570">
        <ele>2565.000</ele>
        <time>2019-07-25T17:24:52Z</time>
      </trkpt>
      <trkpt lat="35.975392190" lon="-106.562865720">
        <ele>2565.000</ele>
        <time>2019-07-25T17:24:56Z</time>
      </trkpt>
      <trkpt lat="35.975402990" lon="-106.562910050">
        <ele>2565.000</ele>
        <time>2019-07-25T17:25:00Z</time>
      </trkpt>
      <trkpt lat="35.975408590" lon="-106.562955710">
        <ele>2565.000</ele>
        <time>2019-07-25T17:25:04Z</time>
      </trkpt>
      <trkpt lat="35.975416880" lon="-106.563001490">
        <ele>2565.000</ele>
        <time>2019-07-25T17:25:08Z</time>
      </trkpt>
      <trkpt lat="35.975431710" lon="-106.563046380">
        <ele>2564.000</ele>
        <time>2019-07-25T17:25:12Z</time>
      </trkpt>
      <trkpt lat="35.975434550" lon="-106.563101440">
        <ele>2564.000</ele>
        <time>2019-07-25T17:25:16Z</time>
      </trkpt>
      <trkpt lat="35.975444540" lon="-106.563144100">
        <ele>2564.000</ele>
        <time>2019-07-25T17:25:20Z</time>
      </trkpt>
      <trkpt lat="35.975456530" lon="-106.563190770">
        <ele>2563.000</ele>
        <time>2019-07-25T17:25:24Z</time>
      </trkpt>
      <trkpt lat="35.975459710" lon="-106.563238470">
        <ele>2563.000</ele>
        <time>2019-07-25T17:25:28Z</time>
      </trkpt>
      <trkpt lat="35.975467120" lon="-106.563283120">
        <ele>2564.000</ele>
        <time>2019-07-25T17:25:32Z</time>
      </trkpt>
      <trkpt lat="35.975473160" lon="-106.563334760">
        <ele>2564.000</ele>
        <time>2019-07-25T17:25:36Z</time>
      </trkpt>
      <trkpt lat="35.975483120" lon="-106.563378470">
        <ele>2565.000</ele>
        <time>2019-07-25T17:25:40Z</time>
      </trkpt>
      <trkpt lat="35.975485670" lon="-106.563427070">
        <ele>2566.000</ele>
        <time>2019-07-25T17:25:44Z</time>
      </trkpt>
      <trkpt lat="35.975495960" lon="-106.563476320">
        <ele>2567.000</ele>
        <time>2019-07-25T17:25:49Z</time>
      </trkpt>
      <trkpt lat="35.975502770" lon="-106.563523250">
        <ele>2567.000</ele>
        <time>2019-07-25T17:25:53Z</time>
      </trkpt>
      <trkpt lat="35.975506130" lon="-106.563572090">
        <ele>2568.000</ele>
        <time>2019-07-25T17:25:57Z</time>
      </trkpt>
      <trkpt lat="35.975513170" lon="-106.563625510">
        <ele>2568.000</ele>
        <time>2019-07-25T17:26:01Z</time>
      </trkpt>
      <trkpt lat="35.975521250" lon="-106.563669960">
        <ele>2568.000</ele>
        <time>2019-07-25T17:26:04Z</time>
      </trkpt>
      <trkpt lat="35.975538080" lon="-106.563712440">
        <ele>2568.000</ele>
        <time>2019-07-25T17:26:07Z</time>
      </trkpt>
      <trkpt lat="35.975546320" lon="-106.563766410">
        <ele>2568.000</ele>
        <time>2019-07-25T17:26:12Z</time>
      </trkpt>
      <trkpt lat="35.975534550" lon="-106.563815580">
        <ele>2568.000</ele>
        <time>2019-07-25T17:26:16Z</time>
      </trkpt>
      <trkpt lat="35.975540100" lon="-106.563860300">
        <ele>2568.000</ele>
        <time>2019-07-25T17:26:20Z</time>
      </trkpt>
      <trkpt lat="35.975556540" lon="-106.563901710">
        <ele>2568.000</ele>
        <time>2019-07-25T17:26:24Z</time>
      </trkpt>
      <trkpt lat="35.975568500" lon="-106.563944740">
        <ele>2568.000</ele>
        <time>2019-07-25T17:26:28Z</time>
      </trkpt>
      <trkpt lat="35.975570190" lon="-106.563998560">
        <ele>2568.000</ele>
        <time>2019-07-25T17:26:33Z</time>
      </trkpt>
      <trkpt lat="35.975577960" lon="-106.564046750">
        <ele>2568.000</ele>
        <time>2019-07-25T17:26:37Z</time>
      </trkpt>
      <trkpt lat="35.975593630" lon="-106.564091040">
        <ele>2568.000</ele>
        <time>2019-07-25T17:26:41Z</time>
      </trkpt>
      <trkpt lat="35.975602410" lon="-106.564136860">
        <ele>2568.000</ele>
        <time>2019-07-25T17:26:45Z</time>
      </trkpt>
      <trkpt lat="35.975600410" lon="-106.564188980">
        <ele>2568.000</ele>
        <time>2019-07-25T17:26:50Z</time>
      </trkpt>
      <trkpt lat="35.975606870" lon="-106.564234240">
        <ele>2568.000</ele>
        <time>2019-07-25T17:26:55Z</time>
      </trkpt>
      <trkpt lat="35.975622620" lon="-106.564281160">
        <ele>2568.000</ele>
        <time>2019-07-25T17:27:00Z</time>
      </trkpt>
      <trkpt lat="35.975631750" lon="-106.564324110">
        <ele>2568.000</ele>
        <time>2019-07-25T17:27:04Z</time>
      </trkpt>
      <trkpt lat="35.975636940" lon="-106.564368100">
        <ele>2568.000</ele>
        <time>2019-07-25T17:27:08Z</time>
      </trkpt>
      <trkpt lat="35.975646020" lon="-106.564412160">
        <ele>2569.000</ele>
        <time>2019-07-25T17:27:12Z</time>
      </trkpt>
      <trkpt lat="35.975653460" lon="-106.564462740">
        <ele>2568.000</ele>
        <time>2019-07-25T17:27:17Z</time>
      </trkpt>
      <trkpt lat="35.975659430" lon="-106.564513180">
        <ele>2568.000</ele>
        <time>2019-07-25T17:27:21Z</time>
      </trkpt>
      <trkpt lat="35.975674240" lon="-106.564554050">
        <ele>2568.000</ele>
        <time>2019-07-25T17:27:25Z</time>
      </trkpt>
      <trkpt lat="35.975684730" lon="-106.564600640">
        <ele>2568.000</ele>
        <time>2019-07-25T17:27:29Z</time>
      </trkpt>
      <trkpt lat="35.975689540" lon="-106.564653130">
        <ele>2568.000</ele>
        <time>2019-07-25T17:27:33Z</time>
      </trkpt>
      <trkpt lat="35.975697250" lon="-106.564697610">
        <ele>2568.000</ele>
        <time>2019-07-25T17:28:06Z</time>
      </trkpt>
      <trkpt lat="35.975713390" lon="-106.564747670">
        <ele>2568.000</ele>
        <time>2019-07-25T17:28:11Z</time>
      </trkpt>
      <trkpt lat="35.975721180" lon="-106.564800350">
        <ele>2567.000</ele>
        <time>2019-07-25T17:28:15Z</time>
      </trkpt>
      <trkpt lat="35.975731210" lon="-106.564844260">
        <ele>2568.000</ele>
        <time>2019-07-25T17:28:19Z</time>
      </trkpt>
      <trkpt lat="35.975732290" lon="-106.564890490">
        <ele>2568.000</ele>
        <time>2019-07-25T17:28:23Z</time>
      </trkpt>
      <trkpt lat="35.975741590" lon="-106.564940500">
        <ele>2568.000</ele>
        <time>2019-07-25T17:28:27Z</time>
      </trkpt>
      <trkpt lat="35.975737750" lon="-106.564985490">
        <ele>2568.000</ele>
        <time>2019-07-25T17:28:38Z</time>
      </trkpt>
      <trkpt lat="35.975740060" lon="-106.565030010">
        <ele>2569.000</ele>
        <time>2019-07-25T17:28:42Z</time>
      </trkpt>
      <trkpt lat="35.975748560" lon="-106.565078420">
        <ele>2569.000</ele>
        <time>2019-07-25T17:28:46Z</time>
      </trkpt>
      <trkpt lat="35.975765100" lon="-106.565129520">
        <ele>2569.000</ele>
        <time>2019-07-25T17:28:50Z</time>
      </trkpt>
      <trkpt lat="35.975774210" lon="-106.565184350">
        <ele>2568.000</ele>
        <time>2019-07-25T17:28:54Z</time>
      </trkpt>
      <trkpt lat="35.975783270" lon="-106.565233050">
        <ele>2569.000</ele>
        <time>2019-07-25T17:28:58Z</time>
      </trkpt>
      <trkpt lat="35.975788620" lon="-106.565278530">
        <ele>2569.000</ele>
        <time>2019-07-25T17:29:02Z</time>
      </trkpt>
      <trkpt lat="35.975798580" lon="-106.565324960">
        <ele>2569.000</ele>
        <time>2019-07-25T17:29:06Z</time>
      </trkpt>
      <trkpt lat="35.975803840" lon="-106.565372960">
        <ele>2569.000</ele>
        <time>2019-07-25T17:29:10Z</time>
      </trkpt>
      <trkpt lat="35.975813380" lon="-106.565418600">
        <ele>2569.000</ele>
        <time>2019-07-25T17:29:14Z</time>
      </trkpt>
      <trkpt lat="35.975821820" lon="-106.565462230">
        <ele>2569.000</ele>
        <time>2019-07-25T17:29:18Z</time>
      </trkpt>
      <trkpt lat="35.975833660" lon="-106.565510320">
        <ele>2569.000</ele>
        <time>2019-07-25T17:29:22Z</time>
      </trkpt>
      <trkpt lat="35.975844150" lon="-106.565557960">
        <ele>2569.000</ele>
        <time>2019-07-25T17:29:27Z</time>
      </trkpt>
      <trkpt lat="35.975853660" lon="-106.565604810">
        <ele>2568.000</ele>
        <time>2019-07-25T17:29:31Z</time>
      </trkpt>
      <trkpt lat="35.975863700" lon="-106.565654570">
        <ele>2568.000</ele>
        <time>2019-07-25T17:29:36Z</time>
      </trkpt>
      <trkpt lat="35.975868680" lon="-106.565702690">
        <ele>2567.000</ele>
        <time>2019-07-25T17:29:41Z</time>
      </trkpt>
      <trkpt lat="35.975874530" lon="-106.565752750">
        <ele>2566.000</ele>
        <time>2019-07-25T17:29:45Z</time>
      </trkpt>
      <trkpt lat="35.975887130" lon="-106.565805300">
        <ele>2566.000</ele>
        <time>2019-07-25T17:29:50Z</time>
      </trkpt>
      <trkpt lat="35.975897330" lon="-106.565851250">
        <ele>2565.000</ele>
        <time>2019-07-25T17:29:54Z</time>
      </trkpt>
      <trkpt lat="35.975898970" lon="-106.565898830">
        <ele>2565.000</ele>
        <time>2019-07-25T17:29:58Z</time>
      </trkpt>
      <trkpt lat="35.975907290" lon="-106.565943220">
        <ele>2564.000</ele>
        <time>2019-07-25T17:30:02Z</time>
      </trkpt>
      <trkpt lat="35.975919450" lon="-106.565995440">
        <ele>2564.000</ele>
        <time>2019-07-25T17:30:07Z</time>
      </trkpt>
      <trkpt lat="35.975929060" lon="-106.566044330">
        <ele>2563.000</ele>
        <time>2019-07-25T17:30:11Z</time>
      </trkpt>
      <trkpt lat="35.975937630" lon="-106.566088530">
        <ele>2562.000</ele>
        <time>2019-07-25T17:30:15Z</time>
      </trkpt>
      <trkpt lat="35.975941810" lon="-106.566136950">
        <ele>2563.000</ele>
        <time>2019-07-25T17:30:19Z</time>
      </trkpt>
      <trkpt lat="35.975953410" lon="-106.566181630">
        <ele>2562.000</ele>
        <time>2019-07-25T17:30:23Z</time>
      </trkpt>
      <trkpt lat="35.975961110" lon="-106.566233020">
        <ele>2562.000</ele>
        <time>2019-07-25T17:30:27Z</time>
      </trkpt>
      <trkpt lat="35.975964090" lon="-106.566288550">
        <ele>2563.000</ele>
        <time>2019-07-25T17:30:31Z</time>
      </trkpt>
      <trkpt lat="35.975971230" lon="-106.566336620">
        <ele>2563.000</ele>
        <time>2019-07-25T17:30:35Z</time>
      </trkpt>
      <trkpt lat="35.975979350" lon="-106.566383580">
        <ele>2563.000</ele>
        <time>2019-07-25T17:30:40Z</time>
      </trkpt>
      <trkpt lat="35.975982460" lon="-106.566431430">
        <ele>2563.000</ele>
        <time>2019-07-25T17:30:44Z</time>
      </trkpt>
      <trkpt lat="35.975993420" lon="-106.566478020">
        <ele>2563.000</ele>
        <time>2019-07-25T17:30:48Z</time>
      </trkpt>
      <trkpt lat="35.976002900" lon="-106.566522790">
        <ele>2563.000</ele>
        <time>2019-07-25T17:30:52Z</time>
      </trkpt>
      <trkpt lat="35.976014770" lon="-106.566565620">
        <ele>2563.000</ele>
        <time>2019-07-25T17:30:56Z</time>
      </trkpt>
      <trkpt lat="35.976023350" lon="-106.566615900">
        <ele>2563.000</ele>
        <time>2019-07-25T17:31:00Z</time>
      </trkpt>
      <trkpt lat="35.976032100" lon="-106.566662660">
        <ele>2562.000</ele>
        <time>2019-07-25T17:31:04Z</time>
      </trkpt>
      <trkpt lat="35.976034790" lon="-106.566713090">
        <ele>2562.000</ele>
        <time>2019-07-25T17:31:08Z</time>
      </trkpt>
      <trkpt lat="35.976036080" lon="-106.566761150">
        <ele>2562.000</ele>
        <time>2019-07-25T17:31:13Z</time>
      </trkpt>
      <trkpt lat="35.976043010" lon="-106.566816810">
        <ele>2561.000</ele>
        <time>2019-07-25T17:31:17Z</time>
      </trkpt>
      <trkpt lat="35.976046020" lon="-106.566868230">
        <ele>2562.000</ele>
        <time>2019-07-25T17:31:21Z</time>
      </trkpt>
      <trkpt lat="35.976048720" lon="-106.566917410">
        <ele>2562.000</ele>
        <time>2019-07-25T17:31:25Z</time>
      </trkpt>
      <trkpt lat="35.976048540" lon="-106.566970930">
        <ele>2563.000</ele>
        <time>2019-07-25T17:32:03Z</time>
      </trkpt>
      <trkpt lat="35.976057650" lon="-106.567016510">
        <ele>2563.000</ele>
        <time>2019-07-25T17:32:07Z</time>
      </trkpt>
      <trkpt lat="35.976055630" lon="-106.567071580">
        <ele>2563.000</ele>
        <time>2019-07-25T17:32:30Z</time>
      </trkpt>
      <trkpt lat="35.976071460" lon="-106.567127350">
        <ele>2563.000</ele>
        <time>2019-07-25T17:32:34Z</time>
      </trkpt>
      <trkpt lat="35.976087730" lon="-106.567180520">
        <ele>2562.000</ele>
        <time>2019-07-25T17:32:38Z</time>
      </trkpt>
      <trkpt lat="35.976094100" lon="-106.567224360">
        <ele>2562.000</ele>
        <time>2019-07-25T17:32:41Z</time>
      </trkpt>
      <trkpt lat="35.976108650" lon="-106.567276060">
        <ele>2561.000</ele>
        <time>2019-07-25T17:32:45Z</time>
      </trkpt>
      <trkpt lat="35.976118390" lon="-106.567328300">
        <ele>2561.000</ele>
        <time>2019-07-25T17:32:49Z</time>
      </trkpt>
      <trkpt lat="35.976127640" lon="-106.567378280">
        <ele>2562.000</ele>
        <time>2019-07-25T17:32:53Z</time>
      </trkpt>
      <trkpt lat="35.976124500" lon="-106.567428320">
        <ele>2562.000</ele>
        <time>2019-07-25T17:32:57Z</time>
      </trkpt>
      <trkpt lat="35.976129580" lon="-106.567477220">
        <ele>2562.000</ele>
        <time>2019-07-25T17:33:01Z</time>
      </trkpt>
      <trkpt lat="35.976150150" lon="-106.567524100">
        <ele>2563.000</ele>
        <time>2019-07-25T17:33:05Z</time>
      </trkpt>
      <trkpt lat="35.976165140" lon="-106.567579990">
        <ele>2563.000</ele>
        <time>2019-07-25T17:33:09Z</time>
      </trkpt>
      <trkpt lat="35.976171860" lon="-106.567630690">
        <ele>2562.000</ele>
        <time>2019-07-25T17:33:13Z</time>
      </trkpt>
      <trkpt lat="35.976165460" lon="-106.567682170">
        <ele>2562.000</ele>
        <time>2019-07-25T17:33:17Z</time>
      </trkpt>
      <trkpt lat="35.976169860" lon="-106.567727830">
        <ele>2562.000</ele>
        <time>2019-07-25T17:33:21Z</time>
      </trkpt>
      <trkpt lat="35.976170130" lon="-106.567778150">
        <ele>2562.000</ele>
        <time>2019-07-25T17:33:26Z</time>
      </trkpt>
      <trkpt lat="35.976188770" lon="-106.567821190">
        <ele>2562.000</ele>
        <time>2019-07-25T17:33:30Z</time>
      </trkpt>
      <trkpt lat="35.976211980" lon="-106.567857150">
        <ele>2562.000</ele>
        <time>2019-07-25T17:33:33Z</time>
      </trkpt>
      <trkpt lat="35.976220600" lon="-106.567900370">
        <ele>2562.000</ele>
        <time>2019-07-25T17:33:37Z</time>
      </trkpt>
      <trkpt lat="35.976224290" lon="-106.567944610">
        <ele>2562.000</ele>
        <time>2019-07-25T17:33:40Z</time>
      </trkpt>
      <trkpt lat="35.976228740" lon="-106.567992460">
        <ele>2562.000</ele>
        <time>2019-07-25T17:33:44Z</time>
      </trkpt>
      <trkpt lat="35.976229610" lon="-106.568044290">
        <ele>2563.000</ele>
        <time>2019-07-25T17:33:49Z</time>
      </trkpt>
      <trkpt lat="35.976229160" lon="-106.568094160">
        <ele>2565.000</ele>
        <time>2019-07-25T17:33:53Z</time>
      </trkpt>
      <trkpt lat="35.976237210" lon="-106.568147120">
        <ele>2565.000</ele>
        <time>2019-07-25T17:33:58Z</time>
      </trkpt>
      <trkpt lat="35.976239050" lon="-106.568192530">
        <ele>2566.000</ele>
        <time>2019-07-25T17:34:02Z</time>
      </trkpt>
      <trkpt lat="35.976249530" lon="-106.568237290">
        <ele>2567.000</ele>
        <time>2019-07-25T17:34:06Z</time>
      </trkpt>
      <trkpt lat="35.976264790" lon="-106.568285090">
        <ele>2567.000</ele>
        <time>2019-07-25T17:34:10Z</time>
      </trkpt>
      <trkpt lat="35.976276540" lon="-106.568333120">
        <ele>2567.000</ele>
        <time>2019-07-25T17:34:14Z</time>
      </trkpt>
      <trkpt lat="35.976284400" lon="-106.568382850">
        <ele>2566.000</ele>
        <time>2019-07-25T17:34:18Z</time>
      </trkpt>
      <trkpt lat="35.976299930" lon="-106.568427290">
        <ele>2567.000</ele>
        <time>2019-07-25T17:34:22Z</time>
      </trkpt>
      <trkpt lat="35.976308180" lon="-106.568475620">
        <ele>2567.000</ele>
        <time>2019-07-25T17:34:26Z</time>
      </trkpt>
      <trkpt lat="35.976314020" lon="-106.568525540">
        <ele>2567.000</ele>
        <time>2019-07-25T17:34:30Z</time>
      </trkpt>
      <trkpt lat="35.976323760" lon="-106.568568390">
        <ele>2567.000</ele>
        <time>2019-07-25T17:34:33Z</time>
      </trkpt>
      <trkpt lat="35.976336060" lon="-106.568618960">
        <ele>2566.000</ele>
        <time>2019-07-25T17:34:37Z</time>
      </trkpt>
      <trkpt lat="35.976347360" lon="-106.568662350">
        <ele>2566.000</ele>
        <time>2019-07-25T17:34:41Z</time>
      </trkpt>
      <trkpt lat="35.976353950" lon="-106.568706960">
        <ele>2567.000</ele>
        <time>2019-07-25T17:34:45Z</time>
      </trkpt>
      <trkpt lat="35.976360720" lon="-106.568753240">
        <ele>2567.000</ele>
        <time>2019-07-25T17:34:52Z</time>
      </trkpt>
      <trkpt lat="35.976373320" lon="-106.568806250">
        <ele>2567.000</ele>
        <time>2019-07-25T17:34:57Z</time>
      </trkpt>
      <trkpt lat="35.976386160" lon="-106.568858100">
        <ele>2567.000</ele>
        <time>2019-07-25T17:35:01Z</time>
      </trkpt>
      <trkpt lat="35.976396550" lon="-106.568912970">
        <ele>2565.000</ele>
        <time>2019-07-25T17:35:05Z</time>
      </trkpt>
      <trkpt lat="35.976401970" lon="-106.568958790">
        <ele>2566.000</ele>
        <time>2019-07-25T17:35:09Z</time>
      </trkpt>
      <trkpt lat="35.976411040" lon="-106.569013770">
        <ele>2565.000</ele>
        <time>2019-07-25T17:35:13Z</time>
      </trkpt>
      <trkpt lat="35.976418660" lon="-106.569065330">
        <ele>2565.000</ele>
        <time>2019-07-25T17:35:17Z</time>
      </trkpt>
      <trkpt lat="35.976427760" lon="-106.569109360">
        <ele>2565.000</ele>
        <time>2019-07-25T17:35:21Z</time>
      </trkpt>
      <trkpt lat="35.976433010" lon="-106.569156850">
        <ele>2566.000</ele>
        <time>2019-07-25T17:35:26Z</time>
      </trkpt>
      <trkpt lat="35.976436560" lon="-106.569213190">
        <ele>2565.000</ele>
        <time>2019-07-25T17:37:01Z</time>
      </trkpt>
      <trkpt lat="35.976437820" lon="-106.569259690">
        <ele>2564.000</ele>
        <time>2019-07-25T17:37:05Z</time>
      </trkpt>
      <trkpt lat="35.976445980" lon="-106.569306950">
        <ele>2564.000</ele>
        <time>2019-07-25T17:37:09Z</time>
      </trkpt>
      <trkpt lat="35.976455390" lon="-106.569353440">
        <ele>2564.000</ele>
        <time>2019-07-25T17:37:14Z</time>
      </trkpt>
      <trkpt lat="35.976465910" lon="-106.569404400">
        <ele>2563.000</ele>
        <time>2019-07-25T17:37:19Z</time>
      </trkpt>
      <trkpt lat="35.976472350" lon="-106.569455630">
        <ele>2563.000</ele>
        <time>2019-07-25T17:37:25Z</time>
      </trkpt>
      <trkpt lat="35.976483570" lon="-106.569501230">
        <ele>2563.000</ele>
        <time>2019-07-25T17:37:29Z</time>
      </trkpt>
      <trkpt lat="35.976489050" lon="-106.569550180">
        <ele>2562.000</ele>
        <time>2019-07-25T17:37:59Z</time>
      </trkpt>
      <trkpt lat="35.976496510" lon="-106.569594290">
        <ele>2562.000</ele>
        <time>2019-07-25T17:38:03Z</time>
      </trkpt>
      <trkpt lat="35.976503840" lon="-106.569638100">
        <ele>2562.000</ele>
        <time>2019-07-25T17:38:06Z</time>
      </trkpt>
      <trkpt lat="35.976513890" lon="-106.569681670">
        <ele>2561.000</ele>
        <time>2019-07-25T17:38:09Z</time>
      </trkpt>
      <trkpt lat="35.976518350" lon="-106.569727410">
        <ele>2561.000</ele>
        <time>2019-07-25T17:38:13Z</time>
      </trkpt>
      <trkpt lat="35.976528030" lon="-106.569776450">
        <ele>2561.000</ele>
        <time>2019-07-25T17:38:17Z</time>
      </trkpt>
      <trkpt lat="35.976533960" lon="-106.569826020">
        <ele>2560.000</ele>
        <time>2019-07-25T17:38:21Z</time>
      </trkpt>
      <trkpt lat="35.976544040" lon="-106.569877570">
        <ele>2560.000</ele>
        <time>2019-07-25T17:38:25Z</time>
      </trkpt>
      <trkpt lat="35.976550830" lon="-106.569929190">
        <ele>2559.000</ele>
        <time>2019-07-25T17:38:29Z</time>
      </trkpt>
      <trkpt lat="35.976560520" lon="-106.569972490">
        <ele>2559.000</ele>
        <time>2019-07-25T17:38:33Z</time>
      </trkpt>
      <trkpt lat="35.976570440" lon="-106.570021880">
        <ele>2559.000</ele>
        <time>2019-07-25T17:38:37Z</time>
      </trkpt>
      <trkpt lat="35.976581490" lon="-106.570066230">
        <ele>2559.000</ele>
        <time>2019-07-25T17:38:41Z</time>
      </trkpt>
      <trkpt lat="35.976587550" lon="-106.570113250">
        <ele>2558.000</ele>
        <time>2019-07-25T17:38:45Z</time>
      </trkpt>
      <trkpt lat="35.976594300" lon="-106.570161800">
        <ele>2558.000</ele>
        <time>2019-07-25T17:38:49Z</time>
      </trkpt>
      <trkpt lat="35.976599400" lon="-106.570208650">
        <ele>2559.000</ele>
        <time>2019-07-25T17:38:53Z</time>
      </trkpt>
      <trkpt lat="35.976595790" lon="-106.570257210">
        <ele>2557.000</ele>
        <time>2019-07-25T17:39:21Z</time>
      </trkpt>
      <trkpt lat="35.976605230" lon="-106.570310710">
        <ele>2556.000</ele>
        <time>2019-07-25T17:39:26Z</time>
      </trkpt>
      <trkpt lat="35.976615590" lon="-106.570364520">
        <ele>2555.000</ele>
        <time>2019-07-25T17:39:30Z</time>
      </trkpt>
      <trkpt lat="35.976626030" lon="-106.570411330">
        <ele>2556.000</ele>
        <time>2019-07-25T17:39:34Z</time>
      </trkpt>
      <trkpt lat="35.976634640" lon="-106.570460640">
        <ele>2556.000</ele>
        <time>2019-07-25T17:39:38Z</time>
      </trkpt>
      <trkpt lat="35.976644780" lon="-106.570507380">
        <ele>2556.000</ele>
        <time>2019-07-25T17:39:42Z</time>
      </trkpt>
      <trkpt lat="35.976649040" lon="-106.570558960">
        <ele>2556.000</ele>
        <time>2019-07-25T17:39:46Z</time>
      </trkpt>
      <trkpt lat="35.976660250" lon="-106.570602200">
        <ele>2556.000</ele>
        <time>2019-07-25T17:39:50Z</time>
      </trkpt>
      <trkpt lat="35.976664450" lon="-106.570651390">
        <ele>2555.000</ele>
        <time>2019-07-25T17:40:23Z</time>
      </trkpt>
      <trkpt lat="35.976675870" lon="-106.570706470">
        <ele>2555.000</ele>
        <time>2019-07-25T17:40:27Z</time>
      </trkpt>
      <trkpt lat="35.976686720" lon="-106.570762550">
        <ele>2555.000</ele>
        <time>2019-07-25T17:40:31Z</time>
      </trkpt>
      <trkpt lat="35.976695330" lon="-106.570812920">
        <ele>2555.000</ele>
        <time>2019-07-25T17:40:35Z</time>
      </trkpt>
      <trkpt lat="35.976701740" lon="-106.570858520">
        <ele>2555.000</ele>
        <time>2019-07-25T17:40:38Z</time>
      </trkpt>
      <trkpt lat="35.976703600" lon="-106.570905770">
        <ele>2556.000</ele>
        <time>2019-07-25T17:40:42Z</time>
      </trkpt>
      <trkpt lat="35.976714980" lon="-106.570954220">
        <ele>2554.000</ele>
        <time>2019-07-25T17:40:46Z</time>
      </trkpt>
      <trkpt lat="35.976717010" lon="-106.571000650">
        <ele>2554.000</ele>
        <time>2019-07-25T17:40:52Z</time>
      </trkpt>
      <trkpt lat="35.976722930" lon="-106.571047500">
        <ele>2554.000</ele>
        <time>2019-07-25T17:40:56Z</time>
      </trkpt>
      <trkpt lat="35.976731990" lon="-106.571097210">
        <ele>2553.000</ele>
        <time>2019-07-25T17:41:00Z</time>
      </trkpt>
      <trkpt lat="35.976743720" lon="-106.571139520">
        <ele>2552.000</ele>
        <time>2019-07-25T17:41:03Z</time>
      </trkpt>
      <trkpt lat="35.976757550" lon="-106.571184950">
        <ele>2551.000</ele>
        <time>2019-07-25T17:41:07Z</time>
      </trkpt>
      <trkpt lat="35.976768540" lon="-106.571240520">
        <ele>2552.000</ele>
        <time>2019-07-25T17:41:11Z</time>
      </trkpt>
      <trkpt lat="35.976776680" lon="-106.571295070">
        <ele>2552.000</ele>
        <time>2019-07-25T17:41:15Z</time>
      </trkpt>
      <trkpt lat="35.976787850" lon="-106.571346110">
        <ele>2551.000</ele>
        <time>2019-07-25T17:41:19Z</time>
      </trkpt>
      <trkpt lat="35.976796140" lon="-106.571393880">
        <ele>2551.000</ele>
        <time>2019-07-25T17:41:23Z</time>
      </trkpt>
      <trkpt lat="35.976807360" lon="-106.571444090">
        <ele>2552.000</ele>
        <time>2019-07-25T17:41:27Z</time>
      </trkpt>
      <trkpt lat="35.976816930" lon="-106.571504480">
        <ele>2553.000</ele>
        <time>2019-07-25T17:41:32Z</time>
      </trkpt>
      <trkpt lat="35.976807690" lon="-106.571565140">
        <ele>2554.000</ele>
        <time>2019-07-25T17:41:36Z</time>
      </trkpt>
      <trkpt lat="35.976811770" lon="-106.571610770">
        <ele>2555.000</ele>
        <time>2019-07-25T17:41:39Z</time>
      </trkpt>
      <trkpt lat="35.976819720" lon="-106.571665770">
        <ele>2555.000</ele>
        <time>2019-07-25T17:41:43Z</time>
      </trkpt>
      <trkpt lat="35.976830350" lon="-106.571714590">
        <ele>2553.000</ele>
        <time>2019-07-25T17:41:47Z</time>
      </trkpt>
      <trkpt lat="35.976845290" lon="-106.571762790">
        <ele>2552.000</ele>
        <time>2019-07-25T17:41:53Z</time>
      </trkpt>
      <trkpt lat="35.976849370" lon="-106.571813330">
        <ele>2553.000</ele>
        <time>2019-07-25T17:41:57Z</time>
      </trkpt>
      <trkpt lat="35.976852960" lon="-106.571864530">
        <ele>2553.000</ele>
        <time>2019-07-25T17:42:01Z</time>
      </trkpt>
      <trkpt lat="35.976865530" lon="-106.571908290">
        <ele>2554.000</ele>
        <time>2019-07-25T17:42:05Z</time>
      </trkpt>
      <trkpt lat="35.976871330" lon="-106.571953740">
        <ele>2555.000</ele>
        <time>2019-07-25T17:42:09Z</time>
      </trkpt>
      <trkpt lat="35.976877710" lon="-106.572001570">
        <ele>2555.000</ele>
        <time>2019-07-25T17:42:13Z</time>
      </trkpt>
      <trkpt lat="35.976894610" lon="-106.572053210">
        <ele>2554.000</ele>
        <time>2019-07-25T17:42:18Z</time>
      </trkpt>
      <trkpt lat="35.976901040" lon="-106.572101110">
        <ele>2554.000</ele>
        <time>2019-07-25T17:42:22Z</time>
      </trkpt>
      <trkpt lat="35.976916390" lon="-106.572154050">
        <ele>2554.000</ele>
        <time>2019-07-25T17:42:26Z</time>
      </trkpt>
      <trkpt lat="35.976923120" lon="-106.572210970">
        <ele>2555.000</ele>
        <time>2019-07-25T17:42:30Z</time>
      </trkpt>
      <trkpt lat="35.976918530" lon="-106.572256200">
        <ele>2555.000</ele>
        <time>2019-07-25T17:42:34Z</time>
      </trkpt>
      <trkpt lat="35.976922580" lon="-106.572301560">
        <ele>2555.000</ele>
        <time>2019-07-25T17:42:37Z</time>
      </trkpt>
      <trkpt lat="35.976928190" lon="-106.572355590">
        <ele>2554.000</ele>
        <time>2019-07-25T17:42:41Z</time>
      </trkpt>
      <trkpt lat="35.976943170" lon="-106.572400790">
        <ele>2554.000</ele>
        <time>2019-07-25T17:42:45Z</time>
      </trkpt>
      <trkpt lat="35.976948240" lon="-106.572452610">
        <ele>2554.000</ele>
        <time>2019-07-25T17:42:50Z</time>
      </trkpt>
      <trkpt lat="35.976953600" lon="-106.572496830">
        <ele>2553.000</ele>
        <time>2019-07-25T17:42:53Z</time>
      </trkpt>
      <trkpt lat="35.976973050" lon="-106.572542350">
        <ele>2553.000</ele>
        <time>2019-07-25T17:42:57Z</time>
      </trkpt>
      <trkpt lat="35.976979270" lon="-106.572590740">
        <ele>2553.000</ele>
        <time>2019-07-25T17:43:01Z</time>
      </trkpt>
      <trkpt lat="35.976981460" lon="-106.572635820">
        <ele>2554.000</ele>
        <time>2019-07-25T17:43:05Z</time>
      </trkpt>
      <trkpt lat="35.976986840" lon="-106.572682150">
        <ele>2555.000</ele>
        <time>2019-07-25T17:43:09Z</time>
      </trkpt>
      <trkpt lat="35.976999100" lon="-106.572731160">
        <ele>2555.000</ele>
        <time>2019-07-25T17:43:13Z</time>
      </trkpt>
      <trkpt lat="35.977005530" lon="-106.572782890">
        <ele>2554.000</ele>
        <time>2019-07-25T17:43:17Z</time>
      </trkpt>
      <trkpt lat="35.977016610" lon="-106.572832670">
        <ele>2555.000</ele>
        <time>2019-07-25T17:43:21Z</time>
      </trkpt>
      <trkpt lat="35.977020470" lon="-106.572884070">
        <ele>2554.000</ele>
        <time>2019-07-25T17:43:25Z</time>
      </trkpt>
      <trkpt lat="35.977027550" lon="-106.572929760">
        <ele>2555.000</ele>
        <time>2019-07-25T17:43:29Z</time>
      </trkpt>
      <trkpt lat="35.977035730" lon="-106.572976820">
        <ele>2555.000</ele>
        <time>2019-07-25T17:43:33Z</time>
      </trkpt>
      <trkpt lat="35.977041900" lon="-106.573030060">
        <ele>2556.000</ele>
        <time>2019-07-25T17:43:37Z</time>
      </trkpt>
      <trkpt lat="35.977056810" lon="-106.573081160">
        <ele>2556.000</ele>
        <time>2019-07-25T17:43:41Z</time>
      </trkpt>
      <trkpt lat="35.977058200" lon="-106.573129670">
        <ele>2556.000</ele>
        <time>2019-07-25T17:43:46Z</time>
      </trkpt>
      <trkpt lat="35.977072360" lon="-106.573174500">
        <ele>2556.000</ele>
        <time>2019-07-25T17:43:50Z</time>
      </trkpt>
      <trkpt lat="35.977080220" lon="-106.573221220">
        <ele>2556.000</ele>
        <time>2019-07-25T17:43:54Z</time>
      </trkpt>
      <trkpt lat="35.977087910" lon="-106.573275110">
        <ele>2556.000</ele>
        <time>2019-07-25T17:43:58Z</time>
      </trkpt>
      <trkpt lat="35.977091530" lon="-106.573321380">
        <ele>2556.000</ele>
        <time>2019-07-25T17:44:02Z</time>
      </trkpt>
      <trkpt lat="35.977102260" lon="-106.573367940">
        <ele>2555.000</ele>
        <time>2019-07-25T17:44:06Z</time>
      </trkpt>
      <trkpt lat="35.977115120" lon="-106.573411730">
        <ele>2555.000</ele>
        <time>2019-07-25T17:44:10Z</time>
      </trkpt>
      <trkpt lat="35.977118000" lon="-106.573459190">
        <ele>2554.000</ele>
        <time>2019-07-25T17:44:14Z</time>
      </trkpt>
      <trkpt lat="35.977125270" lon="-106.573505110">
        <ele>2555.000</ele>
        <time>2019-07-25T17:44:18Z</time>
      </trkpt>
      <trkpt lat="35.977135560" lon="-106.573559040">
        <ele>2554.000</ele>
        <time>2019-07-25T17:44:23Z</time>
      </trkpt>
      <trkpt lat="35.977136060" lon="-106.573607040">
        <ele>2554.000</ele>
        <time>2019-07-25T17:44:27Z</time>
      </trkpt>
      <trkpt lat="35.977143310" lon="-106.573652080">
        <ele>2553.000</ele>
        <time>2019-07-25T17:44:31Z</time>
      </trkpt>
      <trkpt lat="35.977148180" lon="-106.573700060">
        <ele>2553.000</ele>
        <time>2019-07-25T17:44:35Z</time>
      </trkpt>
      <trkpt lat="35.977154050" lon="-106.573756370">
        <ele>2553.000</ele>
        <time>2019-07-25T17:44:40Z</time>
      </trkpt>
      <trkpt lat="35.977158490" lon="-106.573812580">
        <ele>2553.000</ele>
        <time>2019-07-25T17:44:45Z</time>
      </trkpt>
      <trkpt lat="35.977168840" lon="-106.573861540">
        <ele>2552.000</ele>
        <time>2019-07-25T17:44:50Z</time>
      </trkpt>
      <trkpt lat="35.977178310" lon="-106.573911940">
        <ele>2553.000</ele>
        <time>2019-07-25T17:44:56Z</time>
      </trkpt>
      <trkpt lat="35.977186340" lon="-106.573958490">
        <ele>2553.000</ele>
        <time>2019-07-25T17:45:00Z</time>
      </trkpt>
      <trkpt lat="35.977196220" lon="-106.574003930">
        <ele>2552.000</ele>
        <time>2019-07-25T17:45:04Z</time>
      </trkpt>
      <trkpt lat="35.977207370" lon="-106.574050200">
        <ele>2551.000</ele>
        <time>2019-07-25T17:45:08Z</time>
      </trkpt>
      <trkpt lat="35.977217470" lon="-106.574102590">
        <ele>2550.000</ele>
        <time>2019-07-25T17:45:12Z</time>
      </trkpt>
      <trkpt lat="35.977226640" lon="-106.574149230">
        <ele>2550.000</ele>
        <time>2019-07-25T17:45:16Z</time>
      </trkpt>
      <trkpt lat="35.977233190" lon="-106.574197110">
        <ele>2550.000</ele>
        <time>2019-07-25T17:45:20Z</time>
      </trkpt>
      <trkpt lat="35.977250490" lon="-106.574243120">
        <ele>2549.000</ele>
        <time>2019-07-25T17:45:24Z</time>
      </trkpt>
      <trkpt lat="35.977251440" lon="-106.574292610">
        <ele>2549.000</ele>
        <time>2019-07-25T17:45:28Z</time>
      </trkpt>
      <trkpt lat="35.977263470" lon="-106.574348520">
        <ele>2549.000</ele>
        <time>2019-07-25T17:45:33Z</time>
      </trkpt>
      <trkpt lat="35.977269160" lon="-106.574403010">
        <ele>2550.000</ele>
        <time>2019-07-25T17:45:38Z</time>
      </trkpt>
      <trkpt lat="35.977279000" lon="-106.574457360">
        <ele>2550.000</ele>
        <time>2019-07-25T17:45:42Z</time>
      </trkpt>
      <trkpt lat="35.977287410" lon="-106.574503270">
        <ele>2550.000</ele>
        <time>2019-07-25T17:45:46Z</time>
      </trkpt>
      <trkpt lat="35.977293060" lon="-106.574553640">
        <ele>2550.000</ele>
        <time>2019-07-25T17:45:50Z</time>
      </trkpt>
      <trkpt lat="35.977295690" lon="-106.574612760">
        <ele>2549.000</ele>
        <time>2019-07-25T17:45:55Z</time>
      </trkpt>
      <trkpt lat="35.977301490" lon="-106.574658320">
        <ele>2549.000</ele>
        <time>2019-07-25T17:45:59Z</time>
      </trkpt>
      <trkpt lat="35.977304310" lon="-106.574702990">
        <ele>2548.000</ele>
        <time>2019-07-25T17:46:03Z</time>
      </trkpt>
      <trkpt lat="35.977313200" lon="-106.574750760">
        <ele>2547.000</ele>
        <time>2019-07-25T17:46:07Z</time>
      </trkpt>
      <trkpt lat="35.977321780" lon="-106.574798730">
        <ele>2547.000</ele>
        <time>2019-07-25T17:46:11Z</time>
      </trkpt>
      <trkpt lat="35.977330850" lon="-106.574850800">
        <ele>2547.000</ele>
        <time>2019-07-25T17:46:15Z</time>
      </trkpt>
      <trkpt lat="35.977340740" lon="-106.574900080">
        <ele>2546.000</ele>
        <time>2019-07-25T17:46:19Z</time>
      </trkpt>
      <trkpt lat="35.977348450" lon="-106.574952890">
        <ele>2546.000</ele>
        <time>2019-07-25T17:46:23Z</time>
      </trkpt>
      <trkpt lat="35.977355990" lon="-106.574997300">
        <ele>2546.000</ele>
        <time>2019-07-25T17:46:27Z</time>
      </trkpt>
      <trkpt lat="35.977365170" lon="-106.575044690">
        <ele>2547.000</ele>
        <time>2019-07-25T17:46:31Z</time>
      </trkpt>
      <trkpt lat="35.977374470" lon="-106.575090530">
        <ele>2546.000</ele>
        <time>2019-07-25T17:46:35Z</time>
      </trkpt>
      <trkpt lat="35.977377560" lon="-106.575138030">
        <ele>2546.000</ele>
        <time>2019-07-25T17:46:39Z</time>
      </trkpt>
      <trkpt lat="35.977383570" lon="-106.575181940">
        <ele>2546.000</ele>
        <time>2019-07-25T17:46:43Z</time>
      </trkpt>
      <trkpt lat="35.977393930" lon="-106.575228160">
        <ele>2546.000</ele>
        <time>2019-07-25T17:46:47Z</time>
      </trkpt>
      <trkpt lat="35.977406080" lon="-106.575272290">
        <ele>2546.000</ele>
        <time>2019-07-25T17:46:51Z</time>
      </trkpt>
      <trkpt lat="35.977413630" lon="-106.575322070">
        <ele>2545.000</ele>
        <time>2019-07-25T17:46:55Z</time>
      </trkpt>
      <trkpt lat="35.977421860" lon="-106.575369900">
        <ele>2545.000</ele>
        <time>2019-07-25T17:46:59Z</time>
      </trkpt>
      <trkpt lat="35.977430800" lon="-106.575422690">
        <ele>2545.000</ele>
        <time>2019-07-25T17:47:04Z</time>
      </trkpt>
      <trkpt lat="35.977437290" lon="-106.575469990">
        <ele>2544.000</ele>
        <time>2019-07-25T17:47:08Z</time>
      </trkpt>
      <trkpt lat="35.977445620" lon="-106.575529300">
        <ele>2543.000</ele>
        <time>2019-07-25T17:47:12Z</time>
      </trkpt>
      <trkpt lat="35.977447690" lon="-106.575582040">
        <ele>2542.000</ele>
        <time>2019-07-25T17:47:16Z</time>
      </trkpt>
      <trkpt lat="35.977456170" lon="-106.575630990">
        <ele>2543.000</ele>
        <time>2019-07-25T17:47:20Z</time>
      </trkpt>
      <trkpt lat="35.977467760" lon="-106.575675850">
        <ele>2543.000</ele>
        <time>2019-07-25T17:47:24Z</time>
      </trkpt>
      <trkpt lat="35.977478460" lon="-106.575731400">
        <ele>2543.000</ele>
        <time>2019-07-25T17:47:28Z</time>
      </trkpt>
      <trkpt lat="35.977484020" lon="-106.575790670">
        <ele>2544.000</ele>
        <time>2019-07-25T17:47:32Z</time>
      </trkpt>
      <trkpt lat="35.977484220" lon="-106.575844630">
        <ele>2544.000</ele>
        <time>2019-07-25T17:47:36Z</time>
      </trkpt>
      <trkpt lat="35.977490960" lon="-106.575896530">
        <ele>2543.000</ele>
        <time>2019-07-25T17:47:40Z</time>
      </trkpt>
      <trkpt lat="35.977507590" lon="-106.575936330">
        <ele>2543.000</ele>
        <time>2019-07-25T17:47:44Z</time>
      </trkpt>
      <trkpt lat="35.977514030" lon="-106.575985040">
        <ele>2543.000</ele>
        <time>2019-07-25T17:47:48Z</time>
      </trkpt>
      <trkpt lat="35.977522240" lon="-106.576035250">
        <ele>2543.000</ele>
        <time>2019-07-25T17:47:52Z</time>
      </trkpt>
      <trkpt lat="35.977534190" lon="-106.576085520">
        <ele>2542.000</ele>
        <time>2019-07-25T17:47:56Z</time>
      </trkpt>
      <trkpt lat="35.977539240" lon="-106.576138480">
        <ele>2542.000</ele>
        <time>2019-07-25T17:47:59Z</time>
      </trkpt>
      <trkpt lat="35.977550650" lon="-106.576181700">
        <ele>2541.000</ele>
        <time>2019-07-25T17:48:03Z</time>
      </trkpt>
      <trkpt lat="35.977552370" lon="-106.576231410">
        <ele>2541.000</ele>
        <time>2019-07-25T17:48:07Z</time>
      </trkpt>
      <trkpt lat="35.977563070" lon="-106.576282760">
        <ele>2540.000</ele>
        <time>2019-07-25T17:48:11Z</time>
      </trkpt>
      <trkpt lat="35.977575070" lon="-106.576331790">
        <ele>2541.000</ele>
        <time>2019-07-25T17:48:17Z</time>
      </trkpt>
      <trkpt lat="35.977585850" lon="-106.576375600">
        <ele>2540.000</ele>
        <time>2019-07-25T17:48:21Z</time>
      </trkpt>
      <trkpt lat="35.977588010" lon="-106.576423250">
        <ele>2541.000</ele>
        <time>2019-07-25T17:48:25Z</time>
      </trkpt>
      <trkpt lat="35.977595450" lon="-106.576472420">
        <ele>2541.000</ele>
        <time>2019-07-25T17:48:41Z</time>
      </trkpt>
      <trkpt lat="35.977610610" lon="-106.576517050">
        <ele>2540.000</ele>
        <time>2019-07-25T17:48:45Z</time>
      </trkpt>
      <trkpt lat="35.977609080" lon="-106.576572340">
        <ele>2540.000</ele>
        <time>2019-07-25T17:48:49Z</time>
      </trkpt>
      <trkpt lat="35.977616210" lon="-106.576620680">
        <ele>2540.000</ele>
        <time>2019-07-25T17:48:53Z</time>
      </trkpt>
      <trkpt lat="35.977628050" lon="-106.576672030">
        <ele>2541.000</ele>
        <time>2019-07-25T17:48:58Z</time>
      </trkpt>
      <trkpt lat="35.977631160" lon="-106.576725530">
        <ele>2542.000</ele>
        <time>2019-07-25T17:49:02Z</time>
      </trkpt>
      <trkpt lat="35.977628620" lon="-106.576771240">
        <ele>2542.000</ele>
        <time>2019-07-25T17:49:07Z</time>
      </trkpt>
      <trkpt lat="35.977627640" lon="-106.576819560">
        <ele>2541.000</ele>
        <time>2019-07-25T17:49:15Z</time>
      </trkpt>
      <trkpt lat="35.977638440" lon="-106.576865740">
        <ele>2541.000</ele>
        <time>2019-07-25T17:49:19Z</time>
      </trkpt>
      <trkpt lat="35.977648450" lon="-106.576914260">
        <ele>2541.000</ele>
        <time>2019-07-25T17:49:24Z</time>
      </trkpt>
      <trkpt lat="35.977666070" lon="-106.576963580">
        <ele>2542.000</ele>
        <time>2019-07-25T17:49:29Z</time>
      </trkpt>
      <trkpt lat="35.977672410" lon="-106.577014130">
        <ele>2541.000</ele>
        <time>2019-07-25T17:49:33Z</time>
      </trkpt>
      <trkpt lat="35.977681420" lon="-106.577065710">
        <ele>2541.000</ele>
        <time>2019-07-25T17:49:37Z</time>
      </trkpt>
      <trkpt lat="35.977687610" lon="-106.577117850">
        <ele>2541.000</ele>
        <time>2019-07-25T17:49:41Z</time>
      </trkpt>
      <trkpt lat="35.977693580" lon="-106.577175740">
        <ele>2542.000</ele>
        <time>2019-07-25T17:49:45Z</time>
      </trkpt>
      <trkpt lat="35.977708300" lon="-106.577223140">
        <ele>2542.000</ele>
        <time>2019-07-25T17:49:49Z</time>
      </trkpt>
      <trkpt lat="35.977719430" lon="-106.577269320">
        <ele>2541.000</ele>
        <time>2019-07-25T17:49:53Z</time>
      </trkpt>
      <trkpt lat="35.977726160" lon="-106.577319890">
        <ele>2542.000</ele>
        <time>2019-07-25T17:49:57Z</time>
      </trkpt>
      <trkpt lat="35.977730130" lon="-106.577373500">
        <ele>2541.000</ele>
        <time>2019-07-25T17:50:01Z</time>
      </trkpt>
      <trkpt lat="35.977732680" lon="-106.577426450">
        <ele>2543.000</ele>
        <time>2019-07-25T17:50:05Z</time>
      </trkpt>
      <trkpt lat="35.977718710" lon="-106.577475600">
        <ele>2543.000</ele>
        <time>2019-07-25T17:50:10Z</time>
      </trkpt>
      <trkpt lat="35.977721340" lon="-106.577522890">
        <ele>2542.000</ele>
        <time>2019-07-25T17:50:15Z</time>
      </trkpt>
      <trkpt lat="35.977740060" lon="-106.577572270">
        <ele>2542.000</ele>
        <time>2019-07-25T17:50:19Z</time>
      </trkpt>
      <trkpt lat="35.977756060" lon="-106.577616030">
        <ele>2542.000</ele>
        <time>2019-07-25T17:50:22Z</time>
      </trkpt>
      <trkpt lat="35.977773570" lon="-106.577661500">
        <ele>2542.000</ele>
        <time>2019-07-25T17:50:26Z</time>
      </trkpt>
      <trkpt lat="35.977783640" lon="-106.577721340">
        <ele>2542.000</ele>
        <time>2019-07-25T17:50:31Z</time>
      </trkpt>
      <trkpt lat="35.977796220" lon="-106.577763220">
        <ele>2541.000</ele>
        <time>2019-07-25T17:50:35Z</time>
      </trkpt>
      <trkpt lat="35.977803210" lon="-106.577812600">
        <ele>2543.000</ele>
        <time>2019-07-25T17:50:39Z</time>
      </trkpt>
      <trkpt lat="35.977819040" lon="-106.577868570">
        <ele>2542.000</ele>
        <time>2019-07-25T17:50:43Z</time>
      </trkpt>
      <trkpt lat="35.977824190" lon="-106.577913940">
        <ele>2542.000</ele>
        <time>2019-07-25T17:50:57Z</time>
      </trkpt>
      <trkpt lat="35.977830720" lon="-106.577961430">
        <ele>2542.000</ele>
        <time>2019-07-25T17:51:01Z</time>
      </trkpt>
      <trkpt lat="35.977838550" lon="-106.578012240">
        <ele>2542.000</ele>
        <time>2019-07-25T17:51:05Z</time>
      </trkpt>
      <trkpt lat="35.977851360" lon="-106.578063420">
        <ele>2541.000</ele>
        <time>2019-07-25T17:51:09Z</time>
      </trkpt>
      <trkpt lat="35.977861720" lon="-106.578108970">
        <ele>2543.000</ele>
        <time>2019-07-25T17:51:13Z</time>
      </trkpt>
      <trkpt lat="35.977872780" lon="-106.578163790">
        <ele>2543.000</ele>
        <time>2019-07-25T17:51:17Z</time>
      </trkpt>
      <trkpt lat="35.977876970" lon="-106.578216640">
        <ele>2543.000</ele>
        <time>2019-07-25T17:51:21Z</time>
      </trkpt>
      <trkpt lat="35.977887990" lon="-106.578263000">
        <ele>2543.000</ele>
        <time>2019-07-25T17:51:25Z</time>
      </trkpt>
      <trkpt lat="35.977895800" lon="-106.578313360">
        <ele>2543.000</ele>
        <time>2019-07-25T17:51:29Z</time>
      </trkpt>
      <trkpt lat="35.977894900" lon="-106.578365800">
        <ele>2543.000</ele>
        <time>2019-07-25T17:51:33Z</time>
      </trkpt>
      <trkpt lat="35.977903090" lon="-106.578409030">
        <ele>2544.000</ele>
        <time>2019-07-25T17:51:37Z</time>
      </trkpt>
      <trkpt lat="35.977917910" lon="-106.578451620">
        <ele>2543.000</ele>
        <time>2019-07-25T17:51:41Z</time>
      </trkpt>
      <trkpt lat="35.977929660" lon="-106.578498950">
        <ele>2543.000</ele>
        <time>2019-07-25T17:51:45Z</time>
      </trkpt>
      <trkpt lat="35.977941690" lon="-106.578553350">
        <ele>2543.000</ele>
        <time>2019-07-25T17:51:49Z</time>
      </trkpt>
      <trkpt lat="35.977950200" lon="-106.578607990">
        <ele>2542.000</ele>
        <time>2019-07-25T17:51:53Z</time>
      </trkpt>
      <trkpt lat="35.977963480" lon="-106.578650740">
        <ele>2543.000</ele>
        <time>2019-07-25T17:51:57Z</time>
      </trkpt>
      <trkpt lat="35.977975000" lon="-106.578699690">
        <ele>2542.000</ele>
        <time>2019-07-25T17:52:01Z</time>
      </trkpt>
      <trkpt lat="35.977986230" lon="-106.578747960">
        <ele>2543.000</ele>
        <time>2019-07-25T17:52:05Z</time>
      </trkpt>
      <trkpt lat="35.977995100" lon="-106.578797920">
        <ele>2542.000</ele>
        <time>2019-07-25T17:52:09Z</time>
      </trkpt>
      <trkpt lat="35.978008180" lon="-106.578848900">
        <ele>2541.000</ele>
        <time>2019-07-25T17:52:13Z</time>
      </trkpt>
      <trkpt lat="35.978021810" lon="-106.578902360">
        <ele>2541.000</ele>
        <time>2019-07-25T17:52:18Z</time>
      </trkpt>
      <trkpt lat="35.978034480" lon="-106.578950850">
        <ele>2542.000</ele>
        <time>2019-07-25T17:52:22Z</time>
      </trkpt>
      <trkpt lat="35.978050760" lon="-106.578999660">
        <ele>2542.000</ele>
        <time>2019-07-25T17:52:26Z</time>
      </trkpt>
      <trkpt lat="35.978071200" lon="-106.579051240">
        <ele>2542.000</ele>
        <time>2019-07-25T17:52:31Z</time>
      </trkpt>
      <trkpt lat="35.978092870" lon="-106.579109900">
        <ele>2543.000</ele>
        <time>2019-07-25T17:52:37Z</time>
      </trkpt>
      <trkpt lat="35.978103010" lon="-106.579155240">
        <ele>2541.000</ele>
        <time>2019-07-25T17:52:42Z</time>
      </trkpt>
      <trkpt lat="35.978118670" lon="-106.579197420">
        <ele>2541.000</ele>
        <time>2019-07-25T17:52:46Z</time>
      </trkpt>
      <trkpt lat="35.978127980" lon="-106.579245520">
        <ele>2542.000</ele>
        <time>2019-07-25T17:52:49Z</time>
      </trkpt>
      <trkpt lat="35.978147070" lon="-106.579291130">
        <ele>2541.000</ele>
        <time>2019-07-25T17:52:54Z</time>
      </trkpt>
      <trkpt lat="35.978156190" lon="-106.579338910">
        <ele>2540.000</ele>
        <time>2019-07-25T17:52:57Z</time>
      </trkpt>
      <trkpt lat="35.978176180" lon="-106.579385790">
        <ele>2540.000</ele>
        <time>2019-07-25T17:53:01Z</time>
      </trkpt>
      <trkpt lat="35.978192480" lon="-106.579430980">
        <ele>2540.000</ele>
        <time>2019-07-25T17:53:05Z</time>
      </trkpt>
      <trkpt lat="35.978207520" lon="-106.579479850">
        <ele>2540.000</ele>
        <time>2019-07-25T17:53:09Z</time>
      </trkpt>
      <trkpt lat="35.978218200" lon="-106.579528270">
        <ele>2540.000</ele>
        <time>2019-07-25T17:53:13Z</time>
      </trkpt>
      <trkpt lat="35.978233490" lon="-106.579574360">
        <ele>2540.000</ele>
        <time>2019-07-25T17:53:17Z</time>
      </trkpt>
      <trkpt lat="35.978251120" lon="-106.579618630">
        <ele>2540.000</ele>
        <time>2019-07-25T17:53:21Z</time>
      </trkpt>
      <trkpt lat="35.978271790" lon="-106.579663280">
        <ele>2539.000</ele>
        <time>2019-07-25T17:53:25Z</time>
      </trkpt>
      <trkpt lat="35.978285370" lon="-106.579716420">
        <ele>2539.000</ele>
        <time>2019-07-25T17:53:29Z</time>
      </trkpt>
      <trkpt lat="35.978302650" lon="-106.579758110">
        <ele>2539.000</ele>
        <time>2019-07-25T17:53:33Z</time>
      </trkpt>
      <trkpt lat="35.978315110" lon="-106.579803770">
        <ele>2539.000</ele>
        <time>2019-07-25T17:53:37Z</time>
      </trkpt>
      <trkpt lat="35.978334920" lon="-106.579851170">
        <ele>2539.000</ele>
        <time>2019-07-25T17:53:41Z</time>
      </trkpt>
      <trkpt lat="35.978352950" lon="-106.579895360">
        <ele>2539.000</ele>
        <time>2019-07-25T17:53:45Z</time>
      </trkpt>
      <trkpt lat="35.978369270" lon="-106.579943080">
        <ele>2539.000</ele>
        <time>2019-07-25T17:53:49Z</time>
      </trkpt>
      <trkpt lat="35.978389850" lon="-106.579982520">
        <ele>2540.000</ele>
        <time>2019-07-25T17:53:53Z</time>
      </trkpt>
      <trkpt lat="35.978406580" lon="-106.580031340">
        <ele>2540.000</ele>
        <time>2019-07-25T17:53:57Z</time>
      </trkpt>
      <trkpt lat="35.978420430" lon="-106.580073840">
        <ele>2540.000</ele>
        <time>2019-07-25T17:54:01Z</time>
      </trkpt>
      <trkpt lat="35.978448700" lon="-106.580122200">
        <ele>2540.000</ele>
        <time>2019-07-25T17:54:06Z</time>
      </trkpt>
      <trkpt lat="35.978463580" lon="-106.580168830">
        <ele>2539.000</ele>
        <time>2019-07-25T17:54:10Z</time>
      </trkpt>
      <trkpt lat="35.978477070" lon="-106.580219020">
        <ele>2539.000</ele>
        <time>2019-07-25T17:54:14Z</time>
      </trkpt>
      <trkpt lat="35.978492670" lon="-106.580261580">
        <ele>2540.000</ele>
        <time>2019-07-25T17:54:18Z</time>
      </trkpt>
      <trkpt lat="35.978507170" lon="-106.580308790">
        <ele>2540.000</ele>
        <time>2019-07-25T17:54:22Z</time>
      </trkpt>
      <trkpt lat="35.978523910" lon="-106.580352580">
        <ele>2540.000</ele>
        <time>2019-07-25T17:54:26Z</time>
      </trkpt>
      <trkpt lat="35.978539010" lon="-106.580394190">
        <ele>2540.000</ele>
        <time>2019-07-25T17:54:30Z</time>
      </trkpt>
      <trkpt lat="35.978559700" lon="-106.580438770">
        <ele>2540.000</ele>
        <time>2019-07-25T17:54:34Z</time>
      </trkpt>
      <trkpt lat="35.978570940" lon="-106.580483390">
        <ele>2539.000</ele>
        <time>2019-07-25T17:54:40Z</time>
      </trkpt>
      <trkpt lat="35.978583190" lon="-106.580535680">
        <ele>2539.000</ele>
        <time>2019-07-25T17:54:46Z</time>
      </trkpt>
      <trkpt lat="35.978598840" lon="-106.580579350">
        <ele>2539.000</ele>
        <time>2019-07-25T17:54:50Z</time>
      </trkpt>
      <trkpt lat="35.978621400" lon="-106.580625700">
        <ele>2539.000</ele>
        <time>2019-07-25T17:54:54Z</time>
      </trkpt>
      <trkpt lat="35.978631420" lon="-106.580669930">
        <ele>2539.000</ele>
        <time>2019-07-25T17:54:57Z</time>
      </trkpt>
      <trkpt lat="35.978648780" lon="-106.580713300">
        <ele>2537.000</ele>
        <time>2019-07-25T17:55:01Z</time>
      </trkpt>
      <trkpt lat="35.978666630" lon="-106.580751850">
        <ele>2538.000</ele>
        <time>2019-07-25T17:55:05Z</time>
      </trkpt>
      <trkpt lat="35.978681870" lon="-106.580794210">
        <ele>2538.000</ele>
        <time>2019-07-25T17:55:09Z</time>
      </trkpt>
      <trkpt lat="35.978693270" lon="-106.580841440">
        <ele>2538.000</ele>
        <time>2019-07-25T17:55:13Z</time>
      </trkpt>
      <trkpt lat="35.978707400" lon="-106.580889100">
        <ele>2538.000</ele>
        <time>2019-07-25T17:55:17Z</time>
      </trkpt>
      <trkpt lat="35.978733670" lon="-106.580934280">
        <ele>2538.000</ele>
        <time>2019-07-25T17:55:22Z</time>
      </trkpt>
      <trkpt lat="35.978744330" lon="-106.580984550">
        <ele>2539.000</ele>
        <time>2019-07-25T17:55:27Z</time>
      </trkpt>
      <trkpt lat="35.978763290" lon="-106.581029800">
        <ele>2539.000</ele>
        <time>2019-07-25T17:55:41Z</time>
      </trkpt>
      <trkpt lat="35.978778810" lon="-106.581070320">
        <ele>2539.000</ele>
        <time>2019-07-25T17:55:45Z</time>
      </trkpt>
      <trkpt lat="35.978795290" lon="-106.581111440">
        <ele>2539.000</ele>
        <time>2019-07-25T17:55:50Z</time>
      </trkpt>
      <trkpt lat="35.978812040" lon="-106.581153300">
        <ele>2540.000</ele>
        <time>2019-07-25T17:55:55Z</time>
      </trkpt>
      <trkpt lat="35.978828860" lon="-106.581198720">
        <ele>2540.000</ele>
        <time>2019-07-25T17:56:07Z</time>
      </trkpt>
      <trkpt lat="35.978846400" lon="-106.581238570">
        <ele>2539.000</ele>
        <time>2019-07-25T17:56:27Z</time>
      </trkpt>
      <trkpt lat="35.978891350" lon="-106.581228610">
        <ele>2539.000</ele>
        <time>2019-07-25T17:56:32Z</time>
      </trkpt>
      <trkpt lat="35.978935220" lon="-106.581215560">
        <ele>2539.000</ele>
        <time>2019-07-25T17:56:39Z</time>
      </trkpt>
      <trkpt lat="35.978969650" lon="-106.581199810">
        <ele>2538.000</ele>
        <time>2019-07-25T17:56:44Z</time>
      </trkpt>
      <trkpt lat="35.979009830" lon="-106.581183150">
        <ele>2539.000</ele>
        <time>2019-07-25T17:56:49Z</time>
      </trkpt>
      <trkpt lat="35.979051920" lon="-106.581169090">
        <ele>2538.000</ele>
        <time>2019-07-25T17:56:54Z</time>
      </trkpt>
      <trkpt lat="35.979093310" lon="-106.581159110">
        <ele>2537.000</ele>
        <time>2019-07-25T17:56:59Z</time>
      </trkpt>
      <trkpt lat="35.979136920" lon="-106.581155460">
        <ele>2538.000</ele>
        <time>2019-07-25T17:57:04Z</time>
      </trkpt>
      <trkpt lat="35.979178110" lon="-106.581153610">
        <ele>2538.000</ele>
        <time>2019-07-25T17:57:09Z</time>
      </trkpt>
      <trkpt lat="35.979214760" lon="-106.581146050">
        <ele>2538.000</ele>
        <time>2019-07-25T17:57:16Z</time>
      </trkpt>
      <trkpt lat="35.979251650" lon="-106.581130760">
        <ele>2538.000</ele>
        <time>2019-07-25T17:57:28Z</time>
      </trkpt>
      <trkpt lat="35.979292440" lon="-106.581127790">
        <ele>2539.000</ele>
        <time>2019-07-25T17:57:32Z</time>
      </trkpt>
      <trkpt lat="35.979329320" lon="-106.581108760">
        <ele>2538.000</ele>
        <time>2019-07-25T17:57:37Z</time>
      </trkpt>
      <trkpt lat="35.979367290" lon="-106.581085830">
        <ele>2539.000</ele>
        <time>2019-07-25T17:57:42Z</time>
      </trkpt>
      <trkpt lat="35.979397420" lon="-106.581057080">
        <ele>2540.000</ele>
        <time>2019-07-25T17:57:47Z</time>
      </trkpt>
      <trkpt lat="35.979430280" lon="-106.581033170">
        <ele>2540.000</ele>
        <time>2019-07-25T17:57:52Z</time>
      </trkpt>
      <trkpt lat="35.979466790" lon="-106.581020020">
        <ele>2541.000</ele>
        <time>2019-07-25T17:57:56Z</time>
      </trkpt>
      <trkpt lat="35.979499620" lon="-106.580995970">
        <ele>2541.000</ele>
        <time>2019-07-25T17:58:02Z</time>
      </trkpt>
      <trkpt lat="35.979542100" lon="-106.580971630">
        <ele>2539.000</ele>
        <time>2019-07-25T17:58:10Z</time>
      </trkpt>
      <trkpt lat="35.979572070" lon="-106.580929610">
        <ele>2540.000</ele>
        <time>2019-07-25T17:58:15Z</time>
      </trkpt>
      <trkpt lat="35.979599010" lon="-106.580893440">
        <ele>2540.000</ele>
        <time>2019-07-25T17:58:20Z</time>
      </trkpt>
      <trkpt lat="35.979627480" lon="-106.580860190">
        <ele>2541.000</ele>
        <time>2019-07-25T17:58:24Z</time>
      </trkpt>
      <trkpt lat="35.979659630" lon="-106.580829850">
        <ele>2541.000</ele>
        <time>2019-07-25T17:58:30Z</time>
      </trkpt>
      <trkpt lat="35.979690880" lon="-106.580796280">
        <ele>2542.000</ele>
        <time>2019-07-25T17:58:35Z</time>
      </trkpt>
      <trkpt lat="35.979719250" lon="-106.580763280">
        <ele>2542.000</ele>
        <time>2019-07-25T17:58:40Z</time>
      </trkpt>
      <trkpt lat="35.979750400" lon="-106.580732580">
        <ele>2543.000</ele>
        <time>2019-07-25T17:58:45Z</time>
      </trkpt>
      <trkpt lat="35.979790110" lon="-106.580713900">
        <ele>2542.000</ele>
        <time>2019-07-25T17:58:51Z</time>
      </trkpt>
      <trkpt lat="35.979819410" lon="-106.580672370">
        <ele>2542.000</ele>
        <time>2019-07-25T17:58:56Z</time>
      </trkpt>
      <trkpt lat="35.979842180" lon="-106.580634430">
        <ele>2543.000</ele>
        <time>2019-07-25T17:59:01Z</time>
      </trkpt>
      <trkpt lat="35.979857940" lon="-106.580592980">
        <ele>2543.000</ele>
        <time>2019-07-25T17:59:07Z</time>
      </trkpt>
      <trkpt lat="35.979876420" lon="-106.580545100">
        <ele>2544.000</ele>
        <time>2019-07-25T17:59:12Z</time>
      </trkpt>
      <trkpt lat="35.979888120" lon="-106.580498970">
        <ele>2545.000</ele>
        <time>2019-07-25T17:59:17Z</time>
      </trkpt>
      <trkpt lat="35.979901750" lon="-106.580449540">
        <ele>2545.000</ele>
        <time>2019-07-25T17:59:23Z</time>
      </trkpt>
      <trkpt lat="35.979918070" lon="-106.580406140">
        <ele>2545.000</ele>
        <time>2019-07-25T17:59:28Z</time>
      </trkpt>
      <trkpt lat="35.979925100" lon="-106.580355620">
        <ele>2545.000</ele>
        <time>2019-07-25T17:59:33Z</time>
      </trkpt>
      <trkpt lat="35.979931900" lon="-106.580304400">
        <ele>2546.000</ele>
        <time>2019-07-25T17:59:39Z</time>
      </trkpt>
      <trkpt lat="35.979928380" lon="-106.580250500">
        <ele>2546.000</ele>
        <time>2019-07-25T17:59:45Z</time>
      </trkpt>
      <trkpt lat="35.979914260" lon="-106.580209580">
        <ele>2545.000</ele>
        <time>2019-07-25T17:59:50Z</time>
      </trkpt>
      <trkpt lat="35.979904030" lon="-106.580156300">
        <ele>2546.000</ele>
        <time>2019-07-25T17:59:56Z</time>
      </trkpt>
      <trkpt lat="35.979905430" lon="-106.580103070">
        <ele>2546.000</ele>
        <time>2019-07-25T18:00:01Z</time>
      </trkpt>
      <trkpt lat="35.979876530" lon="-106.580076490">
        <ele>2547.000</ele>
        <time>2019-07-25T18:00:10Z</time>
      </trkpt>
      <trkpt lat="35.979865760" lon="-106.580023550">
        <ele>2549.000</ele>
        <time>2019-07-25T18:01:35Z</time>
      </trkpt>
      <trkpt lat="35.979843100" lon="-106.579987550">
        <ele>2550.000</ele>
        <time>2019-07-25T18:01:39Z</time>
      </trkpt>
      <trkpt lat="35.979817400" lon="-106.579954270">
        <ele>2551.000</ele>
        <time>2019-07-25T18:01:43Z</time>
      </trkpt>
      <trkpt lat="35.979795270" lon="-106.579913610">
        <ele>2552.000</ele>
        <time>2019-07-25T18:01:48Z</time>
      </trkpt>
      <trkpt lat="35.979773240" lon="-106.579877520">
        <ele>2552.000</ele>
        <time>2019-07-25T18:01:53Z</time>
      </trkpt>
      <trkpt lat="35.979745170" lon="-106.579839240">
        <ele>2554.000</ele>
        <time>2019-07-25T18:01:58Z</time>
      </trkpt>
      <trkpt lat="35.979734230" lon="-106.579789900">
        <ele>2554.000</ele>
        <time>2019-07-25T18:02:05Z</time>
      </trkpt>
      <trkpt lat="35.979730490" lon="-106.579744640">
        <ele>2555.000</ele>
        <time>2019-07-25T18:02:10Z</time>
      </trkpt>
      <trkpt lat="35.979729110" lon="-106.579695800">
        <ele>2554.000</ele>
        <time>2019-07-25T18:02:16Z</time>
      </trkpt>
      <trkpt lat="35.979741630" lon="-106.579649880">
        <ele>2555.000</ele>
        <time>2019-07-25T18:02:20Z</time>
      </trkpt>
      <trkpt lat="35.979731080" lon="-106.579600560">
        <ele>2554.000</ele>
        <time>2019-07-25T18:02:24Z</time>
      </trkpt>
      <trkpt lat="35.979723150" lon="-106.579548460">
        <ele>2555.000</ele>
        <time>2019-07-25T18:02:29Z</time>
      </trkpt>
      <trkpt lat="35.979728420" lon="-106.579496720">
        <ele>2556.000</ele>
        <time>2019-07-25T18:02:33Z</time>
      </trkpt>
      <trkpt lat="35.979716690" lon="-106.579446870">
        <ele>2556.000</ele>
        <time>2019-07-25T18:02:37Z</time>
      </trkpt>
      <trkpt lat="35.979713390" lon="-106.579401460">
        <ele>2557.000</ele>
        <time>2019-07-25T18:02:41Z</time>
      </trkpt>
      <trkpt lat="35.979718850" lon="-106.579351270">
        <ele>2557.000</ele>
        <time>2019-07-25T18:02:46Z</time>
      </trkpt>
      <trkpt lat="35.979706350" lon="-106.579306130">
        <ele>2557.000</ele>
        <time>2019-07-25T18:02:54Z</time>
      </trkpt>
      <trkpt lat="35.979700880" lon="-106.579262160">
        <ele>2558.000</ele>
        <time>2019-07-25T18:03:09Z</time>
      </trkpt>
      <trkpt lat="35.979676100" lon="-106.579226820">
        <ele>2563.000</ele>
        <time>2019-07-25T18:06:38Z</time>
      </trkpt>
      <trkpt lat="35.979686140" lon="-106.579183430">
        <ele>2564.000</ele>
        <time>2019-07-25T18:07:51Z</time>
      </trkpt>
      <trkpt lat="35.979702870" lon="-106.579144050">
        <ele>2566.000</ele>
        <time>2019-07-25T18:08:01Z</time>
      </trkpt>
      <trkpt lat="35.979720860" lon="-106.579102870">
        <ele>2567.000</ele>
        <time>2019-07-25T18:08:08Z</time>
      </trkpt>
      <trkpt lat="35.979741080" lon="-106.579061730">
        <ele>2568.000</ele>
        <time>2019-07-25T18:08:16Z</time>
      </trkpt>
      <trkpt lat="35.979770200" lon="-106.579033510">
        <ele>2568.000</ele>
        <time>2019-07-25T18:08:22Z</time>
      </trkpt>
      <trkpt lat="35.979751650" lon="-106.578992650">
        <ele>2569.000</ele>
        <time>2019-07-25T18:08:28Z</time>
      </trkpt>
      <trkpt lat="35.979737250" lon="-106.578947020">
        <ele>2569.000</ele>
        <time>2019-07-25T18:08:35Z</time>
      </trkpt>
      <trkpt lat="35.979729710" lon="-106.578895890">
        <ele>2569.000</ele>
        <time>2019-07-25T18:08:45Z</time>
      </trkpt>
      <trkpt lat="35.979701300" lon="-106.578865310">
        <ele>2570.000</ele>
        <time>2019-07-25T18:10:35Z</time>
      </trkpt>
      <trkpt lat="35.979666370" lon="-106.578849020">
        <ele>2570.000</ele>
        <time>2019-07-25T18:10:51Z</time>
      </trkpt>
      <trkpt lat="35.979633270" lon="-106.578826450">
        <ele>2565.000</ele>
        <time>2019-07-25T18:11:44Z</time>
      </trkpt>
      <trkpt lat="35.979633150" lon="-106.578777730">
        <ele>2562.000</ele>
        <time>2019-07-25T18:11:56Z</time>
      </trkpt>
      <trkpt lat="35.979610620" lon="-106.578743030">
        <ele>2560.000</ele>
        <time>2019-07-25T18:12:08Z</time>
      </trkpt>
      <trkpt lat="35.979579230" lon="-106.578703920">
        <ele>2559.000</ele>
        <time>2019-07-25T18:12:15Z</time>
      </trkpt>
      <trkpt lat="35.979557240" lon="-106.578665360">
        <ele>2557.000</ele>
        <time>2019-07-25T18:12:25Z</time>
      </trkpt>
      <trkpt lat="35.979530770" lon="-106.578630700">
        <ele>2557.000</ele>
        <time>2019-07-25T18:12:33Z</time>
      </trkpt>
      <trkpt lat="35.979512470" lon="-106.578589070">
        <ele>2557.000</ele>
        <time>2019-07-25T18:12:38Z</time>
      </trkpt>
      <trkpt lat="35.979486880" lon="-106.578557150">
        <ele>2556.000</ele>
        <time>2019-07-25T18:12:44Z</time>
      </trkpt>
      <trkpt lat="35.979465720" lon="-106.578516760">
        <ele>2556.000</ele>
        <time>2019-07-25T18:12:50Z</time>
      </trkpt>
      <trkpt lat="35.979434260" lon="-106.578485660">
        <ele>2556.000</ele>
        <time>2019-07-25T18:12:56Z</time>
      </trkpt>
      <trkpt lat="35.979410990" lon="-106.578451160">
        <ele>2554.000</ele>
        <time>2019-07-25T18:13:02Z</time>
      </trkpt>
      <trkpt lat="35.979384960" lon="-106.578418170">
        <ele>2554.000</ele>
        <time>2019-07-25T18:13:06Z</time>
      </trkpt>
      <trkpt lat="35.979361890" lon="-106.578383490">
        <ele>2553.000</ele>
        <time>2019-07-25T18:13:11Z</time>
      </trkpt>
      <trkpt lat="35.979333920" lon="-106.578349420">
        <ele>2552.000</ele>
        <time>2019-07-25T18:13:18Z</time>
      </trkpt>
      <trkpt lat="35.979309950" lon="-106.578311610">
        <ele>2550.000</ele>
        <time>2019-07-25T18:13:24Z</time>
      </trkpt>
      <trkpt lat="35.979288110" lon="-106.578268170">
        <ele>2550.000</ele>
        <time>2019-07-25T18:13:30Z</time>
      </trkpt>
      <trkpt lat="35.979256300" lon="-106.578246160">
        <ele>2550.000</ele>
        <time>2019-07-25T18:13:37Z</time>
      </trkpt>
      <trkpt lat="35.979226810" lon="-106.578210220">
        <ele>2549.000</ele>
        <time>2019-07-25T18:13:49Z</time>
      </trkpt>
      <trkpt lat="35.979204020" lon="-106.578175740">
        <ele>2548.000</ele>
        <time>2019-07-25T18:13:55Z</time>
      </trkpt>
      <trkpt lat="35.979170100" lon="-106.578154290">
        <ele>2549.000</ele>
        <time>2019-07-25T18:14:00Z</time>
      </trkpt>
      <trkpt lat="35.979135010" lon="-106.578124380">
        <ele>2548.000</ele>
        <time>2019-07-25T18:14:06Z</time>
      </trkpt>
      <trkpt lat="35.979099020" lon="-106.578105450">
        <ele>2548.000</ele>
        <time>2019-07-25T18:14:12Z</time>
      </trkpt>
      <trkpt lat="35.979072380" lon="-106.578070980">
        <ele>2548.000</ele>
        <time>2019-07-25T18:14:18Z</time>
      </trkpt>
      <trkpt lat="35.979045260" lon="-106.578039070">
        <ele>2547.000</ele>
        <time>2019-07-25T18:14:22Z</time>
      </trkpt>
      <trkpt lat="35.979023480" lon="-106.577994480">
        <ele>2547.000</ele>
        <time>2019-07-25T18:14:27Z</time>
      </trkpt>
      <trkpt lat="35.978985860" lon="-106.577970100">
        <ele>2546.000</ele>
        <time>2019-07-25T18:14:38Z</time>
      </trkpt>
      <trkpt lat="35.978951040" lon="-106.577950020">
        <ele>2547.000</ele>
        <time>2019-07-25T18:14:57Z</time>
      </trkpt>
      <trkpt lat="35.978915790" lon="-106.577928140">
        <ele>2548.000</ele>
        <time>2019-07-25T18:15:01Z</time>
      </trkpt>
      <trkpt lat="35.978883310" lon="-106.577893180">
        <ele>2549.000</ele>
        <time>2019-07-25T18:15:06Z</time>
      </trkpt>
      <trkpt lat="35.978848870" lon="-106.577868420">
        <ele>2548.000</ele>
        <time>2019-07-25T18:15:11Z</time>
      </trkpt>
      <trkpt lat="35.978814880" lon="-106.577849320">
        <ele>2548.000</ele>
        <time>2019-07-25T18:15:16Z</time>
      </trkpt>
      <trkpt lat="35.978780130" lon="-106.577823080">
        <ele>2548.000</ele>
        <time>2019-07-25T18:15:20Z</time>
      </trkpt>
      <trkpt lat="35.978755610" lon="-106.577785820">
        <ele>2548.000</ele>
        <time>2019-07-25T18:15:25Z</time>
      </trkpt>
      <trkpt lat="35.978715580" lon="-106.577778720">
        <ele>2546.000</ele>
        <time>2019-07-25T18:15:30Z</time>
      </trkpt>
      <trkpt lat="35.978680350" lon="-106.577763610">
        <ele>2547.000</ele>
        <time>2019-07-25T18:15:36Z</time>
      </trkpt>
      <trkpt lat="35.978644160" lon="-106.577735080">
        <ele>2545.000</ele>
        <time>2019-07-25T18:15:41Z</time>
      </trkpt>
      <trkpt lat="35.978613730" lon="-106.577699880">
        <ele>2545.000</ele>
        <time>2019-07-25T18:15:45Z</time>
      </trkpt>
      <trkpt lat="35.978581870" lon="-106.577669830">
        <ele>2544.000</ele>
        <time>2019-07-25T18:15:50Z</time>
      </trkpt>
      <trkpt lat="35.978548440" lon="-106.577645370">
        <ele>2544.000</ele>
        <time>2019-07-25T18:15:55Z</time>
      </trkpt>
      <trkpt lat="35.978518280" lon="-106.577615740">
        <ele>2545.000</ele>
        <time>2019-07-25T18:16:00Z</time>
      </trkpt>
      <trkpt lat="35.978487120" lon="-106.577584840">
        <ele>2544.000</ele>
        <time>2019-07-25T18:16:05Z</time>
      </trkpt>
      <trkpt lat="35.978458350" lon="-106.577555560">
        <ele>2545.000</ele>
        <time>2019-07-25T18:16:09Z</time>
      </trkpt>
      <trkpt lat="35.978427650" lon="-106.577529950">
        <ele>2545.000</ele>
        <time>2019-07-25T18:16:13Z</time>
      </trkpt>
      <trkpt lat="35.978389690" lon="-106.577498410">
        <ele>2545.000</ele>
        <time>2019-07-25T18:16:17Z</time>
      </trkpt>
      <trkpt lat="35.978360640" lon="-106.577471460">
        <ele>2546.000</ele>
        <time>2019-07-25T18:16:21Z</time>
      </trkpt>
      <trkpt lat="35.978326550" lon="-106.577449530">
        <ele>2546.000</ele>
        <time>2019-07-25T18:16:26Z</time>
      </trkpt>
      <trkpt lat="35.978296530" lon="-106.577411430">
        <ele>2546.000</ele>
        <time>2019-07-25T18:16:31Z</time>
      </trkpt>
      <trkpt lat="35.978265290" lon="-106.577371020">
        <ele>2546.000</ele>
        <time>2019-07-25T18:16:36Z</time>
      </trkpt>
      <trkpt lat="35.978227490" lon="-106.577355170">
        <ele>2546.000</ele>
        <time>2019-07-25T18:16:40Z</time>
      </trkpt>
      <trkpt lat="35.978199130" lon="-106.577319630">
        <ele>2547.000</ele>
        <time>2019-07-25T18:16:44Z</time>
      </trkpt>
      <trkpt lat="35.978163970" lon="-106.577307050">
        <ele>2546.000</ele>
        <time>2019-07-25T18:16:48Z</time>
      </trkpt>
      <trkpt lat="35.978134120" lon="-106.577273410">
        <ele>2546.000</ele>
        <time>2019-07-25T18:16:52Z</time>
      </trkpt>
      <trkpt lat="35.978109720" lon="-106.577232750">
        <ele>2546.000</ele>
        <time>2019-07-25T18:16:57Z</time>
      </trkpt>
      <trkpt lat="35.978077740" lon="-106.577197040">
        <ele>2545.000</ele>
        <time>2019-07-25T18:17:02Z</time>
      </trkpt>
      <trkpt lat="35.978045710" lon="-106.577173960">
        <ele>2545.000</ele>
        <time>2019-07-25T18:17:06Z</time>
      </trkpt>
      <trkpt lat="35.978010860" lon="-106.577150690">
        <ele>2545.000</ele>
        <time>2019-07-25T18:17:11Z</time>
      </trkpt>
      <trkpt lat="35.977977360" lon="-106.577119470">
        <ele>2546.000</ele>
        <time>2019-07-25T18:17:16Z</time>
      </trkpt>
      <trkpt lat="35.977945610" lon="-106.577088650">
        <ele>2545.000</ele>
        <time>2019-07-25T18:17:21Z</time>
      </trkpt>
      <trkpt lat="35.977915680" lon="-106.577055720">
        <ele>2545.000</ele>
        <time>2019-07-25T18:17:26Z</time>
      </trkpt>
      <trkpt lat="35.977889690" lon="-106.577014940">
        <ele>2545.000</ele>
        <time>2019-07-25T18:17:31Z</time>
      </trkpt>
      <trkpt lat="35.977864340" lon="-106.576973690">
        <ele>2545.000</ele>
        <time>2019-07-25T18:17:36Z</time>
      </trkpt>
      <trkpt lat="35.977845910" lon="-106.576932150">
        <ele>2544.000</ele>
        <time>2019-07-25T18:17:40Z</time>
      </trkpt>
      <trkpt lat="35.977823330" lon="-106.576893970">
        <ele>2545.000</ele>
        <time>2019-07-25T18:17:44Z</time>
      </trkpt>
      <trkpt lat="35.977793220" lon="-106.576857460">
        <ele>2545.000</ele>
        <time>2019-07-25T18:17:49Z</time>
      </trkpt>
      <trkpt lat="35.977759180" lon="-106.576827240">
        <ele>2544.000</ele>
        <time>2019-07-25T18:17:55Z</time>
      </trkpt>
      <trkpt lat="35.977744190" lon="-106.576780620">
        <ele>2544.000</ele>
        <time>2019-07-25T18:18:00Z</time>
      </trkpt>
      <trkpt lat="35.977719660" lon="-106.576745300">
        <ele>2544.000</ele>
        <time>2019-07-25T18:18:06Z</time>
      </trkpt>
      <trkpt lat="35.977688690" lon="-106.576713470">
        <ele>2545.000</ele>
        <time>2019-07-25T18:18:12Z</time>
      </trkpt>
      <trkpt lat="35.977654550" lon="-106.576673650">
        <ele>2544.000</ele>
        <time>2019-07-25T18:18:17Z</time>
      </trkpt>
      <trkpt lat="35.977620380" lon="-106.576642910">
        <ele>2542.000</ele>
        <time>2019-07-25T18:18:25Z</time>
      </trkpt>
      <trkpt lat="35.977611850" lon="-106.576597420">
        <ele>2543.000</ele>
        <time>2019-07-25T18:18:39Z</time>
      </trkpt>
      <trkpt lat="35.977607430" lon="-106.576544690">
        <ele>2543.000</ele>
        <time>2019-07-25T18:19:00Z</time>
      </trkpt>
      <trkpt lat="35.977607600" lon="-106.576495490">
        <ele>2544.000</ele>
        <time>2019-07-25T18:19:05Z</time>
      </trkpt>
      <trkpt lat="35.977606540" lon="-106.576450270">
        <ele>2544.000</ele>
        <time>2019-07-25T18:19:08Z</time>
      </trkpt>
      <trkpt lat="35.977599120" lon="-106.576405620">
        <ele>2544.000</ele>
        <time>2019-07-25T18:19:12Z</time>
      </trkpt>
      <trkpt lat="35.977582360" lon="-106.576356860">
        <ele>2544.000</ele>
        <time>2019-07-25T18:19:17Z</time>
      </trkpt>
      <trkpt lat="35.977581690" lon="-106.576312120">
        <ele>2544.000</ele>
        <time>2019-07-25T18:19:21Z</time>
      </trkpt>
      <trkpt lat="35.977569520" lon="-106.576268150">
        <ele>2543.000</ele>
        <time>2019-07-25T18:19:26Z</time>
      </trkpt>
      <trkpt lat="35.977554570" lon="-106.576223250">
        <ele>2543.000</ele>
        <time>2019-07-25T18:19:30Z</time>
      </trkpt>
      <trkpt lat="35.977545000" lon="-106.576172700">
        <ele>2543.000</ele>
        <time>2019-07-25T18:19:34Z</time>
      </trkpt>
      <trkpt lat="35.977542230" lon="-106.576123470">
        <ele>2544.000</ele>
        <time>2019-07-25T18:19:38Z</time>
      </trkpt>
      <trkpt lat="35.977539410" lon="-106.576072950">
        <ele>2544.000</ele>
        <time>2019-07-25T18:19:42Z</time>
      </trkpt>
      <trkpt lat="35.977529850" lon="-106.576024670">
        <ele>2544.000</ele>
        <time>2019-07-25T18:19:46Z</time>
      </trkpt>
      <trkpt lat="35.977521980" lon="-106.575974260">
        <ele>2544.000</ele>
        <time>2019-07-25T18:19:50Z</time>
      </trkpt>
      <trkpt lat="35.977515630" lon="-106.575922280">
        <ele>2545.000</ele>
        <time>2019-07-25T18:19:54Z</time>
      </trkpt>
      <trkpt lat="35.977507330" lon="-106.575878670">
        <ele>2545.000</ele>
        <time>2019-07-25T18:20:10Z</time>
      </trkpt>
      <trkpt lat="35.977494780" lon="-106.575829070">
        <ele>2545.000</ele>
        <time>2019-07-25T18:20:15Z</time>
      </trkpt>
      <trkpt lat="35.977486050" lon="-106.575781900">
        <ele>2544.000</ele>
        <time>2019-07-25T18:20:19Z</time>
      </trkpt>
      <trkpt lat="35.977477340" lon="-106.575729250">
        <ele>2544.000</ele>
        <time>2019-07-25T18:20:23Z</time>
      </trkpt>
      <trkpt lat="35.977466690" lon="-106.575676030">
        <ele>2545.000</ele>
        <time>2019-07-25T18:20:28Z</time>
      </trkpt>
      <trkpt lat="35.977467740" lon="-106.575625000">
        <ele>2545.000</ele>
        <time>2019-07-25T18:20:32Z</time>
      </trkpt>
      <trkpt lat="35.977462080" lon="-106.575575100">
        <ele>2545.000</ele>
        <time>2019-07-25T18:20:36Z</time>
      </trkpt>
      <trkpt lat="35.977458820" lon="-106.575530670">
        <ele>2545.000</ele>
        <time>2019-07-25T18:20:40Z</time>
      </trkpt>
      <trkpt lat="35.977453300" lon="-106.575479850">
        <ele>2545.000</ele>
        <time>2019-07-25T18:20:44Z</time>
      </trkpt>
      <trkpt lat="35.977440770" lon="-106.575428180">
        <ele>2545.000</ele>
        <time>2019-07-25T18:20:48Z</time>
      </trkpt>
      <trkpt lat="35.977433700" lon="-106.575374910">
        <ele>2545.000</ele>
        <time>2019-07-25T18:20:53Z</time>
      </trkpt>
      <trkpt lat="35.977423200" lon="-106.575322890">
        <ele>2545.000</ele>
        <time>2019-07-25T18:20:57Z</time>
      </trkpt>
      <trkpt lat="35.977416170" lon="-106.575277800">
        <ele>2545.000</ele>
        <time>2019-07-25T18:21:01Z</time>
      </trkpt>
      <trkpt lat="35.977397830" lon="-106.575232270">
        <ele>2546.000</ele>
        <time>2019-07-25T18:21:05Z</time>
      </trkpt>
      <trkpt lat="35.977384950" lon="-106.575183700">
        <ele>2546.000</ele>
        <time>2019-07-25T18:21:10Z</time>
      </trkpt>
      <trkpt lat="35.977386320" lon="-106.575136270">
        <ele>2546.000</ele>
        <time>2019-07-25T18:21:23Z</time>
      </trkpt>
      <trkpt lat="35.977378040" lon="-106.575092190">
        <ele>2546.000</ele>
        <time>2019-07-25T18:21:27Z</time>
      </trkpt>
      <trkpt lat="35.977365930" lon="-106.575039460">
        <ele>2546.000</ele>
        <time>2019-07-25T18:21:31Z</time>
      </trkpt>
      <trkpt lat="35.977360920" lon="-106.574990080">
        <ele>2547.000</ele>
        <time>2019-07-25T18:21:35Z</time>
      </trkpt>
      <trkpt lat="35.977347750" lon="-106.574936270">
        <ele>2547.000</ele>
        <time>2019-07-25T18:21:40Z</time>
      </trkpt>
      <trkpt lat="35.977343200" lon="-106.574883160">
        <ele>2547.000</ele>
        <time>2019-07-25T18:21:44Z</time>
      </trkpt>
      <trkpt lat="35.977326580" lon="-106.574839050">
        <ele>2548.000</ele>
        <time>2019-07-25T18:21:48Z</time>
      </trkpt>
      <trkpt lat="35.977315560" lon="-106.574795730">
        <ele>2548.000</ele>
        <time>2019-07-25T18:21:52Z</time>
      </trkpt>
      <trkpt lat="35.977312060" lon="-106.574745480">
        <ele>2548.000</ele>
        <time>2019-07-25T18:21:56Z</time>
      </trkpt>
      <trkpt lat="35.977307320" lon="-106.574699230">
        <ele>2548.000</ele>
        <time>2019-07-25T18:22:00Z</time>
      </trkpt>
      <trkpt lat="35.977300880" lon="-106.574652030">
        <ele>2549.000</ele>
        <time>2019-07-25T18:22:04Z</time>
      </trkpt>
      <trkpt lat="35.977301590" lon="-106.574599120">
        <ele>2550.000</ele>
        <time>2019-07-25T18:22:14Z</time>
      </trkpt>
      <trkpt lat="35.977292780" lon="-106.574542820">
        <ele>2550.000</ele>
        <time>2019-07-25T18:22:37Z</time>
      </trkpt>
      <trkpt lat="35.977287900" lon="-106.574494750">
        <ele>2550.000</ele>
        <time>2019-07-25T18:22:41Z</time>
      </trkpt>
      <trkpt lat="35.977283670" lon="-106.574448830">
        <ele>2550.000</ele>
        <time>2019-07-25T18:22:45Z</time>
      </trkpt>
      <trkpt lat="35.977270570" lon="-106.574393940">
        <ele>2551.000</ele>
        <time>2019-07-25T18:22:49Z</time>
      </trkpt>
      <trkpt lat="35.977258190" lon="-106.574342660">
        <ele>2552.000</ele>
        <time>2019-07-25T18:22:53Z</time>
      </trkpt>
      <trkpt lat="35.977256270" lon="-106.574294580">
        <ele>2552.000</ele>
        <time>2019-07-25T18:22:57Z</time>
      </trkpt>
      <trkpt lat="35.977251400" lon="-106.574249740">
        <ele>2552.000</ele>
        <time>2019-07-25T18:23:01Z</time>
      </trkpt>
      <trkpt lat="35.977246120" lon="-106.574196660">
        <ele>2552.000</ele>
        <time>2019-07-25T18:23:05Z</time>
      </trkpt>
      <trkpt lat="35.977240100" lon="-106.574149850">
        <ele>2552.000</ele>
        <time>2019-07-25T18:23:09Z</time>
      </trkpt>
      <trkpt lat="35.977225000" lon="-106.574097280">
        <ele>2552.000</ele>
        <time>2019-07-25T18:23:13Z</time>
      </trkpt>
      <trkpt lat="35.977212100" lon="-106.574051200">
        <ele>2553.000</ele>
        <time>2019-07-25T18:23:17Z</time>
      </trkpt>
      <trkpt lat="35.977197820" lon="-106.574001300">
        <ele>2552.000</ele>
        <time>2019-07-25T18:23:21Z</time>
      </trkpt>
      <trkpt lat="35.977191520" lon="-106.573951400">
        <ele>2553.000</ele>
        <time>2019-07-25T18:23:26Z</time>
      </trkpt>
      <trkpt lat="35.977182280" lon="-106.573904160">
        <ele>2553.000</ele>
        <time>2019-07-25T18:23:30Z</time>
      </trkpt>
      <trkpt lat="35.977173020" lon="-106.573858330">
        <ele>2555.000</ele>
        <time>2019-07-25T18:23:40Z</time>
      </trkpt>
      <trkpt lat="35.977170390" lon="-106.573813610">
        <ele>2555.000</ele>
        <time>2019-07-25T18:23:43Z</time>
      </trkpt>
      <trkpt lat="35.977161550" lon="-106.573763390">
        <ele>2555.000</ele>
        <time>2019-07-25T18:23:47Z</time>
      </trkpt>
      <trkpt lat="35.977156710" lon="-106.573718600">
        <ele>2555.000</ele>
        <time>2019-07-25T18:23:50Z</time>
      </trkpt>
      <trkpt lat="35.977146710" lon="-106.573667300">
        <ele>2555.000</ele>
        <time>2019-07-25T18:23:54Z</time>
      </trkpt>
      <trkpt lat="35.977145630" lon="-106.573611480">
        <ele>2556.000</ele>
        <time>2019-07-25T18:23:58Z</time>
      </trkpt>
      <trkpt lat="35.977141210" lon="-106.573562570">
        <ele>2556.000</ele>
        <time>2019-07-25T18:24:02Z</time>
      </trkpt>
      <trkpt lat="35.977136510" lon="-106.573514030">
        <ele>2557.000</ele>
        <time>2019-07-25T18:24:06Z</time>
      </trkpt>
      <trkpt lat="35.977124900" lon="-106.573465270">
        <ele>2557.000</ele>
        <time>2019-07-25T18:24:10Z</time>
      </trkpt>
      <trkpt lat="35.977118810" lon="-106.573410980">
        <ele>2558.000</ele>
        <time>2019-07-25T18:24:14Z</time>
      </trkpt>
      <trkpt lat="35.977103750" lon="-106.573367170">
        <ele>2558.000</ele>
        <time>2019-07-25T18:24:18Z</time>
      </trkpt>
      <trkpt lat="35.977092170" lon="-106.573318400">
        <ele>2559.000</ele>
        <time>2019-07-25T18:24:22Z</time>
      </trkpt>
      <trkpt lat="35.977085140" lon="-106.573272900">
        <ele>2559.000</ele>
        <time>2019-07-25T18:24:25Z</time>
      </trkpt>
      <trkpt lat="35.977079130" lon="-106.573221470">
        <ele>2559.000</ele>
        <time>2019-07-25T18:24:29Z</time>
      </trkpt>
      <trkpt lat="35.977069610" lon="-106.573173780">
        <ele>2560.000</ele>
        <time>2019-07-25T18:24:33Z</time>
      </trkpt>
      <trkpt lat="35.977070420" lon="-106.573118290">
        <ele>2560.000</ele>
        <time>2019-07-25T18:24:37Z</time>
      </trkpt>
      <trkpt lat="35.977065360" lon="-106.573059050">
        <ele>2560.000</ele>
        <time>2019-07-25T18:24:41Z</time>
      </trkpt>
      <trkpt lat="35.977045060" lon="-106.573007060">
        <ele>2559.000</ele>
        <time>2019-07-25T18:24:45Z</time>
      </trkpt>
      <trkpt lat="35.977036890" lon="-106.572953940">
        <ele>2559.000</ele>
        <time>2019-07-25T18:24:49Z</time>
      </trkpt>
      <trkpt lat="35.977031550" lon="-106.572899780">
        <ele>2559.000</ele>
        <time>2019-07-25T18:24:53Z</time>
      </trkpt>
      <trkpt lat="35.977019800" lon="-106.572846270">
        <ele>2559.000</ele>
        <time>2019-07-25T18:24:57Z</time>
      </trkpt>
      <trkpt lat="35.977001170" lon="-106.572805800">
        <ele>2558.000</ele>
        <time>2019-07-25T18:25:00Z</time>
      </trkpt>
      <trkpt lat="35.976991640" lon="-106.572761410">
        <ele>2557.000</ele>
        <time>2019-07-25T18:25:04Z</time>
      </trkpt>
      <trkpt lat="35.976982750" lon="-106.572709510">
        <ele>2556.000</ele>
        <time>2019-07-25T18:25:08Z</time>
      </trkpt>
      <trkpt lat="35.976971970" lon="-106.572666360">
        <ele>2556.000</ele>
        <time>2019-07-25T18:25:12Z</time>
      </trkpt>
      <trkpt lat="35.976963410" lon="-106.572619600">
        <ele>2556.000</ele>
        <time>2019-07-25T18:25:16Z</time>
      </trkpt>
      <trkpt lat="35.976958390" lon="-106.572571690">
        <ele>2556.000</ele>
        <time>2019-07-25T18:25:21Z</time>
      </trkpt>
      <trkpt lat="35.976947900" lon="-106.572522510">
        <ele>2555.000</ele>
        <time>2019-07-25T18:25:56Z</time>
      </trkpt>
      <trkpt lat="35.976942800" lon="-106.572470250">
        <ele>2554.000</ele>
        <time>2019-07-25T18:26:01Z</time>
      </trkpt>
      <trkpt lat="35.976941740" lon="-106.572424820">
        <ele>2554.000</ele>
        <time>2019-07-25T18:26:06Z</time>
      </trkpt>
      <trkpt lat="35.976924380" lon="-106.572378670">
        <ele>2554.000</ele>
        <time>2019-07-25T18:26:10Z</time>
      </trkpt>
      <trkpt lat="35.976910760" lon="-106.572329280">
        <ele>2554.000</ele>
        <time>2019-07-25T18:26:14Z</time>
      </trkpt>
      <trkpt lat="35.976916140" lon="-106.572278780">
        <ele>2554.000</ele>
        <time>2019-07-25T18:26:18Z</time>
      </trkpt>
      <trkpt lat="35.976910240" lon="-106.572230280">
        <ele>2555.000</ele>
        <time>2019-07-25T18:26:22Z</time>
      </trkpt>
      <trkpt lat="35.976906550" lon="-106.572173310">
        <ele>2556.000</ele>
        <time>2019-07-25T18:26:27Z</time>
      </trkpt>
      <trkpt lat="35.976895450" lon="-106.572130320">
        <ele>2556.000</ele>
        <time>2019-07-25T18:26:30Z</time>
      </trkpt>
      <trkpt lat="35.976888240" lon="-106.572078060">
        <ele>2556.000</ele>
        <time>2019-07-25T18:26:34Z</time>
      </trkpt>
      <trkpt lat="35.976876920" lon="-106.572030350">
        <ele>2557.000</ele>
        <time>2019-07-25T18:26:38Z</time>
      </trkpt>
      <trkpt lat="35.976869140" lon="-106.571986020">
        <ele>2557.000</ele>
        <time>2019-07-25T18:26:41Z</time>
      </trkpt>
      <trkpt lat="35.976856310" lon="-106.571926990">
        <ele>2557.000</ele>
        <time>2019-07-25T18:26:45Z</time>
      </trkpt>
      <trkpt lat="35.976847750" lon="-106.571870970">
        <ele>2557.000</ele>
        <time>2019-07-25T18:26:49Z</time>
      </trkpt>
      <trkpt lat="35.976837180" lon="-106.571827050">
        <ele>2557.000</ele>
        <time>2019-07-25T18:26:52Z</time>
      </trkpt>
      <trkpt lat="35.976825400" lon="-106.571775840">
        <ele>2557.000</ele>
        <time>2019-07-25T18:26:56Z</time>
      </trkpt>
      <trkpt lat="35.976824050" lon="-106.571723030">
        <ele>2556.000</ele>
        <time>2019-07-25T18:27:00Z</time>
      </trkpt>
      <trkpt lat="35.976820080" lon="-106.571671450">
        <ele>2556.000</ele>
        <time>2019-07-25T18:27:04Z</time>
      </trkpt>
      <trkpt lat="35.976814350" lon="-106.571627640">
        <ele>2556.000</ele>
        <time>2019-07-25T18:27:07Z</time>
      </trkpt>
      <trkpt lat="35.976805480" lon="-106.571576860">
        <ele>2556.000</ele>
        <time>2019-07-25T18:27:11Z</time>
      </trkpt>
      <trkpt lat="35.976807240" lon="-106.571528510">
        <ele>2556.000</ele>
        <time>2019-07-25T18:27:15Z</time>
      </trkpt>
      <trkpt lat="35.976807940" lon="-106.571473460">
        <ele>2556.000</ele>
        <time>2019-07-25T18:27:19Z</time>
      </trkpt>
      <trkpt lat="35.976795930" lon="-106.571430450">
        <ele>2556.000</ele>
        <time>2019-07-25T18:27:22Z</time>
      </trkpt>
      <trkpt lat="35.976780990" lon="-106.571380230">
        <ele>2556.000</ele>
        <time>2019-07-25T18:27:26Z</time>
      </trkpt>
      <trkpt lat="35.976780470" lon="-106.571329490">
        <ele>2556.000</ele>
        <time>2019-07-25T18:27:30Z</time>
      </trkpt>
      <trkpt lat="35.976772700" lon="-106.571284440">
        <ele>2556.000</ele>
        <time>2019-07-25T18:27:34Z</time>
      </trkpt>
      <trkpt lat="35.976760230" lon="-106.571240210">
        <ele>2556.000</ele>
        <time>2019-07-25T18:27:37Z</time>
      </trkpt>
      <trkpt lat="35.976751620" lon="-106.571187730">
        <ele>2556.000</ele>
        <time>2019-07-25T18:27:41Z</time>
      </trkpt>
      <trkpt lat="35.976741900" lon="-106.571134150">
        <ele>2556.000</ele>
        <time>2019-07-25T18:27:45Z</time>
      </trkpt>
      <trkpt lat="35.976743040" lon="-106.571081380">
        <ele>2556.000</ele>
        <time>2019-07-25T18:27:49Z</time>
      </trkpt>
      <trkpt lat="35.976731640" lon="-106.571030250">
        <ele>2556.000</ele>
        <time>2019-07-25T18:27:53Z</time>
      </trkpt>
      <trkpt lat="35.976729600" lon="-106.570977100">
        <ele>2556.000</ele>
        <time>2019-07-25T18:27:57Z</time>
      </trkpt>
      <trkpt lat="35.976719690" lon="-106.570924310">
        <ele>2556.000</ele>
        <time>2019-07-25T18:28:01Z</time>
      </trkpt>
      <trkpt lat="35.976708240" lon="-106.570872020">
        <ele>2557.000</ele>
        <time>2019-07-25T18:28:05Z</time>
      </trkpt>
      <trkpt lat="35.976700480" lon="-106.570822130">
        <ele>2557.000</ele>
        <time>2019-07-25T18:28:09Z</time>
      </trkpt>
      <trkpt lat="35.976688330" lon="-106.570769810">
        <ele>2558.000</ele>
        <time>2019-07-25T18:28:13Z</time>
      </trkpt>
      <trkpt lat="35.976679610" lon="-106.570722620">
        <ele>2558.000</ele>
        <time>2019-07-25T18:28:17Z</time>
      </trkpt>
      <trkpt lat="35.976673590" lon="-106.570666750">
        <ele>2558.000</ele>
        <time>2019-07-25T18:28:21Z</time>
      </trkpt>
      <trkpt lat="35.976665370" lon="-106.570619510">
        <ele>2558.000</ele>
        <time>2019-07-25T18:28:25Z</time>
      </trkpt>
      <trkpt lat="35.976657290" lon="-106.570569140">
        <ele>2558.000</ele>
        <time>2019-07-25T18:28:29Z</time>
      </trkpt>
      <trkpt lat="35.976651190" lon="-106.570516810">
        <ele>2559.000</ele>
        <time>2019-07-25T18:28:33Z</time>
      </trkpt>
      <trkpt lat="35.976641130" lon="-106.570464680">
        <ele>2558.000</ele>
        <time>2019-07-25T18:28:44Z</time>
      </trkpt>
      <trkpt lat="35.976627430" lon="-106.570418220">
        <ele>2558.000</ele>
        <time>2019-07-25T18:28:48Z</time>
      </trkpt>
      <trkpt lat="35.976624390" lon="-106.570367230">
        <ele>2558.000</ele>
        <time>2019-07-25T18:28:52Z</time>
      </trkpt>
      <trkpt lat="35.976608980" lon="-106.570316980">
        <ele>2558.000</ele>
        <time>2019-07-25T18:28:56Z</time>
      </trkpt>
      <trkpt lat="35.976605350" lon="-106.570266070">
        <ele>2559.000</ele>
        <time>2019-07-25T18:29:00Z</time>
      </trkpt>
      <trkpt lat="35.976597550" lon="-106.570214020">
        <ele>2559.000</ele>
        <time>2019-07-25T18:29:04Z</time>
      </trkpt>
      <trkpt lat="35.976593750" lon="-106.570162970">
        <ele>2559.000</ele>
        <time>2019-07-25T18:29:08Z</time>
      </trkpt>
      <trkpt lat="35.976590570" lon="-106.570117970">
        <ele>2559.000</ele>
        <time>2019-07-25T18:29:11Z</time>
      </trkpt>
      <trkpt lat="35.976580480" lon="-106.570064820">
        <ele>2559.000</ele>
        <time>2019-07-25T18:29:15Z</time>
      </trkpt>
      <trkpt lat="35.976570250" lon="-106.570015320">
        <ele>2560.000</ele>
        <time>2019-07-25T18:29:19Z</time>
      </trkpt>
      <trkpt lat="35.976560650" lon="-106.569963780">
        <ele>2560.000</ele>
        <time>2019-07-25T18:29:23Z</time>
      </trkpt>
      <trkpt lat="35.976558630" lon="-106.569910040">
        <ele>2561.000</ele>
        <time>2019-07-25T18:29:27Z</time>
      </trkpt>
      <trkpt lat="35.976548070" lon="-106.569856700">
        <ele>2561.000</ele>
        <time>2019-07-25T18:29:31Z</time>
      </trkpt>
      <trkpt lat="35.976539870" lon="-106.569800470">
        <ele>2561.000</ele>
        <time>2019-07-25T18:29:35Z</time>
      </trkpt>
      <trkpt lat="35.976530700" lon="-106.569750260">
        <ele>2561.000</ele>
        <time>2019-07-25T18:29:39Z</time>
      </trkpt>
      <trkpt lat="35.976525170" lon="-106.569693640">
        <ele>2561.000</ele>
        <time>2019-07-25T18:29:43Z</time>
      </trkpt>
      <trkpt lat="35.976510020" lon="-106.569643420">
        <ele>2561.000</ele>
        <time>2019-07-25T18:29:47Z</time>
      </trkpt>
      <trkpt lat="35.976501950" lon="-106.569593260">
        <ele>2561.000</ele>
        <time>2019-07-25T18:29:51Z</time>
      </trkpt>
      <trkpt lat="35.976489900" lon="-106.569541690">
        <ele>2561.000</ele>
        <time>2019-07-25T18:29:55Z</time>
      </trkpt>
      <trkpt lat="35.976486400" lon="-106.569488210">
        <ele>2562.000</ele>
        <time>2019-07-25T18:29:59Z</time>
      </trkpt>
      <trkpt lat="35.976475560" lon="-106.569434040">
        <ele>2563.000</ele>
        <time>2019-07-25T18:30:03Z</time>
      </trkpt>
      <trkpt lat="35.976471460" lon="-106.569375730">
        <ele>2563.000</ele>
        <time>2019-07-25T18:30:07Z</time>
      </trkpt>
      <trkpt lat="35.976462140" lon="-106.569327410">
        <ele>2564.000</ele>
        <time>2019-07-25T18:30:11Z</time>
      </trkpt>
      <trkpt lat="35.976453580" lon="-106.569276770">
        <ele>2565.000</ele>
        <time>2019-07-25T18:30:15Z</time>
      </trkpt>
      <trkpt lat="35.976446920" lon="-106.569226340">
        <ele>2565.000</ele>
        <time>2019-07-25T18:30:19Z</time>
      </trkpt>
      <trkpt lat="35.976443490" lon="-106.569171490">
        <ele>2565.000</ele>
        <time>2019-07-25T18:30:23Z</time>
      </trkpt>
      <trkpt lat="35.976428860" lon="-106.569127230">
        <ele>2566.000</ele>
        <time>2019-07-25T18:30:27Z</time>
      </trkpt>
      <trkpt lat="35.976423380" lon="-106.569083360">
        <ele>2568.000</ele>
        <time>2019-07-25T18:30:30Z</time>
      </trkpt>
      <trkpt lat="35.976413380" lon="-106.569030410">
        <ele>2568.000</ele>
        <time>2019-07-25T18:30:34Z</time>
      </trkpt>
      <trkpt lat="35.976403400" lon="-106.568986390">
        <ele>2568.000</ele>
        <time>2019-07-25T18:30:38Z</time>
      </trkpt>
      <trkpt lat="35.976392510" lon="-106.568931920">
        <ele>2567.000</ele>
        <time>2019-07-25T18:30:44Z</time>
      </trkpt>
      <trkpt lat="35.976386630" lon="-106.568881130">
        <ele>2568.000</ele>
        <time>2019-07-25T18:30:48Z</time>
      </trkpt>
      <trkpt lat="35.976386160" lon="-106.568833510">
        <ele>2567.000</ele>
        <time>2019-07-25T18:30:51Z</time>
      </trkpt>
      <trkpt lat="35.976380100" lon="-106.568781230">
        <ele>2567.000</ele>
        <time>2019-07-25T18:30:55Z</time>
      </trkpt>
      <trkpt lat="35.976370430" lon="-106.568733590">
        <ele>2567.000</ele>
        <time>2019-07-25T18:30:59Z</time>
      </trkpt>
      <trkpt lat="35.976363950" lon="-106.568680090">
        <ele>2567.000</ele>
        <time>2019-07-25T18:31:03Z</time>
      </trkpt>
      <trkpt lat="35.976348810" lon="-106.568628220">
        <ele>2567.000</ele>
        <time>2019-07-25T18:31:07Z</time>
      </trkpt>
      <trkpt lat="35.976338380" lon="-106.568575140">
        <ele>2567.000</ele>
        <time>2019-07-25T18:31:11Z</time>
      </trkpt>
      <trkpt lat="35.976318560" lon="-106.568534130">
        <ele>2566.000</ele>
        <time>2019-07-25T18:31:18Z</time>
      </trkpt>
      <trkpt lat="35.976310360" lon="-106.568490670">
        <ele>2567.000</ele>
        <time>2019-07-25T18:31:22Z</time>
      </trkpt>
      <trkpt lat="35.976292900" lon="-106.568440710">
        <ele>2566.000</ele>
        <time>2019-07-25T18:31:53Z</time>
      </trkpt>
      <trkpt lat="35.976289690" lon="-106.568392180">
        <ele>2565.000</ele>
        <time>2019-07-25T18:31:57Z</time>
      </trkpt>
      <trkpt lat="35.976281100" lon="-106.568340260">
        <ele>2565.000</ele>
        <time>2019-07-25T18:32:01Z</time>
      </trkpt>
      <trkpt lat="35.976261730" lon="-106.568290910">
        <ele>2565.000</ele>
        <time>2019-07-25T18:32:05Z</time>
      </trkpt>
      <trkpt lat="35.976255370" lon="-106.568238140">
        <ele>2565.000</ele>
        <time>2019-07-25T18:32:09Z</time>
      </trkpt>
      <trkpt lat="35.976240580" lon="-106.568189740">
        <ele>2564.000</ele>
        <time>2019-07-25T18:32:13Z</time>
      </trkpt>
      <trkpt lat="35.976242870" lon="-106.568140650">
        <ele>2564.000</ele>
        <time>2019-07-25T18:32:17Z</time>
      </trkpt>
      <trkpt lat="35.976226270" lon="-106.568099010">
        <ele>2563.000</ele>
        <time>2019-07-25T18:32:20Z</time>
      </trkpt>
      <trkpt lat="35.976220870" lon="-106.568048670">
        <ele>2564.000</ele>
        <time>2019-07-25T18:32:24Z</time>
      </trkpt>
      <trkpt lat="35.976223740" lon="-106.567996210">
        <ele>2564.000</ele>
        <time>2019-07-25T18:32:28Z</time>
      </trkpt>
      <trkpt lat="35.976220220" lon="-106.567947320">
        <ele>2565.000</ele>
        <time>2019-07-25T18:32:32Z</time>
      </trkpt>
      <trkpt lat="35.976229420" lon="-106.567903120">
        <ele>2565.000</ele>
        <time>2019-07-25T18:32:38Z</time>
      </trkpt>
      <trkpt lat="35.976228050" lon="-106.567856580">
        <ele>2564.000</ele>
        <time>2019-07-25T18:32:52Z</time>
      </trkpt>
      <trkpt lat="35.976195490" lon="-106.567809080">
        <ele>2564.000</ele>
        <time>2019-07-25T18:32:56Z</time>
      </trkpt>
      <trkpt lat="35.976179630" lon="-106.567762870">
        <ele>2563.000</ele>
        <time>2019-07-25T18:33:02Z</time>
      </trkpt>
      <trkpt lat="35.976177480" lon="-106.567709950">
        <ele>2563.000</ele>
        <time>2019-07-25T18:33:07Z</time>
      </trkpt>
      <trkpt lat="35.976179290" lon="-106.567664330">
        <ele>2563.000</ele>
        <time>2019-07-25T18:33:10Z</time>
      </trkpt>
      <trkpt lat="35.976168260" lon="-106.567617030">
        <ele>2563.000</ele>
        <time>2019-07-25T18:33:14Z</time>
      </trkpt>
      <trkpt lat="35.976176090" lon="-106.567569890">
        <ele>2564.000</ele>
        <time>2019-07-25T18:33:18Z</time>
      </trkpt>
      <trkpt lat="35.976158670" lon="-106.567530200">
        <ele>2564.000</ele>
        <time>2019-07-25T18:33:21Z</time>
      </trkpt>
      <trkpt lat="35.976136550" lon="-106.567483180">
        <ele>2564.000</ele>
        <time>2019-07-25T18:33:29Z</time>
      </trkpt>
      <trkpt lat="35.976123140" lon="-106.567428750">
        <ele>2565.000</ele>
        <time>2019-07-25T18:33:33Z</time>
      </trkpt>
      <trkpt lat="35.976112850" lon="-106.567377910">
        <ele>2565.000</ele>
        <time>2019-07-25T18:33:37Z</time>
      </trkpt>
      <trkpt lat="35.976101050" lon="-106.567323770">
        <ele>2565.000</ele>
        <time>2019-07-25T18:33:41Z</time>
      </trkpt>
      <trkpt lat="35.976082190" lon="-106.567269900">
        <ele>2564.000</ele>
        <time>2019-07-25T18:33:46Z</time>
      </trkpt>
      <trkpt lat="35.976074670" lon="-106.567218400">
        <ele>2565.000</ele>
        <time>2019-07-25T18:33:50Z</time>
      </trkpt>
      <trkpt lat="35.976064950" lon="-106.567165100">
        <ele>2564.000</ele>
        <time>2019-07-25T18:33:54Z</time>
      </trkpt>
      <trkpt lat="35.976058150" lon="-106.567115310">
        <ele>2564.000</ele>
        <time>2019-07-25T18:33:58Z</time>
      </trkpt>
      <trkpt lat="35.976044280" lon="-106.567063530">
        <ele>2563.000</ele>
        <time>2019-07-25T18:34:16Z</time>
      </trkpt>
      <trkpt lat="35.976035880" lon="-106.567013550">
        <ele>2563.000</ele>
        <time>2019-07-25T18:34:21Z</time>
      </trkpt>
      <trkpt lat="35.976028290" lon="-106.566962790">
        <ele>2563.000</ele>
        <time>2019-07-25T18:34:25Z</time>
      </trkpt>
      <trkpt lat="35.976022270" lon="-106.566912470">
        <ele>2564.000</ele>
        <time>2019-07-25T18:34:29Z</time>
      </trkpt>
      <trkpt lat="35.976019470" lon="-106.566860530">
        <ele>2564.000</ele>
        <time>2019-07-25T18:34:33Z</time>
      </trkpt>
      <trkpt lat="35.976021310" lon="-106.566804310">
        <ele>2565.000</ele>
        <time>2019-07-25T18:34:37Z</time>
      </trkpt>
      <trkpt lat="35.976027030" lon="-106.566754350">
        <ele>2564.000</ele>
        <time>2019-07-25T18:34:41Z</time>
      </trkpt>
      <trkpt lat="35.976022070" lon="-106.566704270">
        <ele>2564.000</ele>
        <time>2019-07-25T18:34:45Z</time>
      </trkpt>
      <trkpt lat="35.976020490" lon="-106.566647900">
        <ele>2563.000</ele>
        <time>2019-07-25T18:34:49Z</time>
      </trkpt>
      <trkpt lat="35.976010720" lon="-106.566597520">
        <ele>2563.000</ele>
        <time>2019-07-25T18:34:53Z</time>
      </trkpt>
      <trkpt lat="35.975996590" lon="-106.566548230">
        <ele>2563.000</ele>
        <time>2019-07-25T18:34:57Z</time>
      </trkpt>
      <trkpt lat="35.975981200" lon="-106.566504030">
        <ele>2562.000</ele>
        <time>2019-07-25T18:35:01Z</time>
      </trkpt>
      <trkpt lat="35.975979660" lon="-106.566459320">
        <ele>2563.000</ele>
        <time>2019-07-25T18:35:05Z</time>
      </trkpt>
      <trkpt lat="35.975971800" lon="-106.566411420">
        <ele>2564.000</ele>
        <time>2019-07-25T18:35:09Z</time>
      </trkpt>
      <trkpt lat="35.975964680" lon="-106.566360320">
        <ele>2564.000</ele>
        <time>2019-07-25T18:35:13Z</time>
      </trkpt>
      <trkpt lat="35.975961460" lon="-106.566312010">
        <ele>2565.000</ele>
        <time>2019-07-25T18:35:17Z</time>
      </trkpt>
      <trkpt lat="35.975956160" lon="-106.566261480">
        <ele>2565.000</ele>
        <time>2019-07-25T18:35:21Z</time>
      </trkpt>
      <trkpt lat="35.975946630" lon="-106.566217610">
        <ele>2565.000</ele>
        <time>2019-07-25T18:35:24Z</time>
      </trkpt>
      <trkpt lat="35.975939060" lon="-106.566168860">
        <ele>2565.000</ele>
        <time>2019-07-25T18:35:28Z</time>
      </trkpt>
      <trkpt lat="35.975926980" lon="-106.566120600">
        <ele>2565.000</ele>
        <time>2019-07-25T18:35:32Z</time>
      </trkpt>
      <trkpt lat="35.975910180" lon="-106.566073010">
        <ele>2565.000</ele>
        <time>2019-07-25T18:35:36Z</time>
      </trkpt>
      <trkpt lat="35.975907970" lon="-106.566020850">
        <ele>2565.000</ele>
        <time>2019-07-25T18:35:40Z</time>
      </trkpt>
      <trkpt lat="35.975906860" lon="-106.565972090">
        <ele>2565.000</ele>
        <time>2019-07-25T18:35:44Z</time>
      </trkpt>
      <trkpt lat="35.975897780" lon="-106.565923460">
        <ele>2565.000</ele>
        <time>2019-07-25T18:35:48Z</time>
      </trkpt>
      <trkpt lat="35.975886660" lon="-106.565871570">
        <ele>2566.000</ele>
        <time>2019-07-25T18:35:53Z</time>
      </trkpt>
      <trkpt lat="35.975875330" lon="-106.565825460">
        <ele>2566.000</ele>
        <time>2019-07-25T18:35:57Z</time>
      </trkpt>
      <trkpt lat="35.975868360" lon="-106.565774560">
        <ele>2566.000</ele>
        <time>2019-07-25T18:36:01Z</time>
      </trkpt>
      <trkpt lat="35.975866320" lon="-106.565727790">
        <ele>2566.000</ele>
        <time>2019-07-25T18:36:05Z</time>
      </trkpt>
      <trkpt lat="35.975858160" lon="-106.565676750">
        <ele>2566.000</ele>
        <time>2019-07-25T18:36:09Z</time>
      </trkpt>
      <trkpt lat="35.975851500" lon="-106.565627990">
        <ele>2568.000</ele>
        <time>2019-07-25T18:36:14Z</time>
      </trkpt>
      <trkpt lat="35.975823000" lon="-106.565588890">
        <ele>2568.000</ele>
        <time>2019-07-25T18:36:29Z</time>
      </trkpt>
      <trkpt lat="35.975805390" lon="-106.565537390">
        <ele>2568.000</ele>
        <time>2019-07-25T18:36:33Z</time>
      </trkpt>
      <trkpt lat="35.975789050" lon="-106.565489870">
        <ele>2569.000</ele>
        <time>2019-07-25T18:36:37Z</time>
      </trkpt>
      <trkpt lat="35.975784240" lon="-106.565440860">
        <ele>2568.000</ele>
        <time>2019-07-25T18:36:41Z</time>
      </trkpt>
      <trkpt lat="35.975778810" lon="-106.565391870">
        <ele>2569.000</ele>
        <time>2019-07-25T18:36:45Z</time>
      </trkpt>
      <trkpt lat="35.975774760" lon="-106.565335510">
        <ele>2569.000</ele>
        <time>2019-07-25T18:36:49Z</time>
      </trkpt>
      <trkpt lat="35.975765940" lon="-106.565288190">
        <ele>2569.000</ele>
        <time>2019-07-25T18:36:53Z</time>
      </trkpt>
      <trkpt lat="35.975755580" lon="-106.565235630">
        <ele>2569.000</ele>
        <time>2019-07-25T18:36:57Z</time>
      </trkpt>
      <trkpt lat="35.975744950" lon="-106.565187230">
        <ele>2570.000</ele>
        <time>2019-07-25T18:37:01Z</time>
      </trkpt>
      <trkpt lat="35.975727460" lon="-106.565134350">
        <ele>2569.000</ele>
        <time>2019-07-25T18:37:05Z</time>
      </trkpt>
      <trkpt lat="35.975731540" lon="-106.565082280">
        <ele>2570.000</ele>
        <time>2019-07-25T18:37:10Z</time>
      </trkpt>
      <trkpt lat="35.975721540" lon="-106.565038090">
        <ele>2569.000</ele>
        <time>2019-07-25T18:37:14Z</time>
      </trkpt>
      <trkpt lat="35.975708670" lon="-106.564988540">
        <ele>2569.000</ele>
        <time>2019-07-25T18:37:18Z</time>
      </trkpt>
      <trkpt lat="35.975704410" lon="-106.564938090">
        <ele>2569.000</ele>
        <time>2019-07-25T18:37:22Z</time>
      </trkpt>
      <trkpt lat="35.975698760" lon="-106.564892690">
        <ele>2569.000</ele>
        <time>2019-07-25T18:37:26Z</time>
      </trkpt>
      <trkpt lat="35.975689610" lon="-106.564849000">
        <ele>2569.000</ele>
        <time>2019-07-25T18:37:35Z</time>
      </trkpt>
      <trkpt lat="35.975672960" lon="-106.564800190">
        <ele>2569.000</ele>
        <time>2019-07-25T18:37:39Z</time>
      </trkpt>
      <trkpt lat="35.975673050" lon="-106.564747940">
        <ele>2568.000</ele>
        <time>2019-07-25T18:37:43Z</time>
      </trkpt>
      <trkpt lat="35.975670450" lon="-106.564695500">
        <ele>2569.000</ele>
        <time>2019-07-25T18:37:47Z</time>
      </trkpt>
      <trkpt lat="35.975652290" lon="-106.564647770">
        <ele>2568.000</ele>
        <time>2019-07-25T18:37:51Z</time>
      </trkpt>
      <trkpt lat="35.975640550" lon="-106.564605040">
        <ele>2568.000</ele>
        <time>2019-07-25T18:37:54Z</time>
      </trkpt>
      <trkpt lat="35.975635030" lon="-106.564559270">
        <ele>2569.000</ele>
        <time>2019-07-25T18:37:58Z</time>
      </trkpt>
      <trkpt lat="35.975629190" lon="-106.564506730">
        <ele>2569.000</ele>
        <time>2019-07-25T18:38:02Z</time>
      </trkpt>
      <trkpt lat="35.975621380" lon="-106.564454200">
        <ele>2569.000</ele>
        <time>2019-07-25T18:38:06Z</time>
      </trkpt>
      <trkpt lat="35.975610090" lon="-106.564402890">
        <ele>2570.000</ele>
        <time>2019-07-25T18:38:10Z</time>
      </trkpt>
      <trkpt lat="35.975604850" lon="-106.564353980">
        <ele>2570.000</ele>
        <time>2019-07-25T18:38:14Z</time>
      </trkpt>
      <trkpt lat="35.975599500" lon="-106.564302520">
        <ele>2569.000</ele>
        <time>2019-07-25T18:38:18Z</time>
      </trkpt>
      <trkpt lat="35.975583550" lon="-106.564260490">
        <ele>2570.000</ele>
        <time>2019-07-25T18:38:23Z</time>
      </trkpt>
      <trkpt lat="35.975574460" lon="-106.564207510">
        <ele>2569.000</ele>
        <time>2019-07-25T18:38:28Z</time>
      </trkpt>
      <trkpt lat="35.975583400" lon="-106.564164080">
        <ele>2569.000</ele>
        <time>2019-07-25T18:38:32Z</time>
      </trkpt>
      <trkpt lat="35.975593530" lon="-106.564110330">
        <ele>2569.000</ele>
        <time>2019-07-25T18:38:37Z</time>
      </trkpt>
      <trkpt lat="35.975607970" lon="-106.564059550">
        <ele>2569.000</ele>
        <time>2019-07-25T18:38:41Z</time>
      </trkpt>
      <trkpt lat="35.975590110" lon="-106.564009810">
        <ele>2568.000</ele>
        <time>2019-07-25T18:38:45Z</time>
      </trkpt>
      <trkpt lat="35.975570610" lon="-106.563969490">
        <ele>2568.000</ele>
        <time>2019-07-25T18:38:49Z</time>
      </trkpt>
      <trkpt lat="35.975561890" lon="-106.563922340">
        <ele>2569.000</ele>
        <time>2019-07-25T18:38:53Z</time>
      </trkpt>
      <trkpt lat="35.975535920" lon="-106.563880450">
        <ele>2570.000</ele>
        <time>2019-07-25T18:38:58Z</time>
      </trkpt>
      <trkpt lat="35.975526160" lon="-106.563835200">
        <ele>2569.000</ele>
        <time>2019-07-25T18:39:03Z</time>
      </trkpt>
      <trkpt lat="35.975530650" lon="-106.563778420">
        <ele>2569.000</ele>
        <time>2019-07-25T18:39:08Z</time>
      </trkpt>
      <trkpt lat="35.975537010" lon="-106.563733320">
        <ele>2568.000</ele>
        <time>2019-07-25T18:39:12Z</time>
      </trkpt>
      <trkpt lat="35.975519950" lon="-106.563684590">
        <ele>2567.000</ele>
        <time>2019-07-25T18:39:16Z</time>
      </trkpt>
      <trkpt lat="35.975516880" lon="-106.563632940">
        <ele>2567.000</ele>
        <time>2019-07-25T18:39:36Z</time>
      </trkpt>
      <trkpt lat="35.975507640" lon="-106.563579980">
        <ele>2567.000</ele>
        <time>2019-07-25T18:39:40Z</time>
      </trkpt>
      <trkpt lat="35.975502170" lon="-106.563534440">
        <ele>2567.000</ele>
        <time>2019-07-25T18:39:44Z</time>
      </trkpt>
      <trkpt lat="35.975498430" lon="-106.563487400">
        <ele>2567.000</ele>
        <time>2019-07-25T18:39:48Z</time>
      </trkpt>
      <trkpt lat="35.975493300" lon="-106.563429340">
        <ele>2567.000</ele>
        <time>2019-07-25T18:39:53Z</time>
      </trkpt>
      <trkpt lat="35.975484140" lon="-106.563380410">
        <ele>2567.000</ele>
        <time>2019-07-25T18:39:57Z</time>
      </trkpt>
      <trkpt lat="35.975474240" lon="-106.563332680">
        <ele>2566.000</ele>
        <time>2019-07-25T18:40:01Z</time>
      </trkpt>
      <trkpt lat="35.975471440" lon="-106.563287380">
        <ele>2566.000</ele>
        <time>2019-07-25T18:40:05Z</time>
      </trkpt>
      <trkpt lat="35.975459280" lon="-106.563236010">
        <ele>2567.000</ele>
        <time>2019-07-25T18:40:09Z</time>
      </trkpt>
      <trkpt lat="35.975447860" lon="-106.563191020">
        <ele>2566.000</ele>
        <time>2019-07-25T18:40:13Z</time>
      </trkpt>
      <trkpt lat="35.975442100" lon="-106.563138980">
        <ele>2566.000</ele>
        <time>2019-07-25T18:40:17Z</time>
      </trkpt>
      <trkpt lat="35.975436890" lon="-106.563088790">
        <ele>2565.000</ele>
        <time>2019-07-25T18:40:21Z</time>
      </trkpt>
      <trkpt lat="35.975432150" lon="-106.563041260">
        <ele>2564.000</ele>
        <time>2019-07-25T18:40:25Z</time>
      </trkpt>
      <trkpt lat="35.975426040" lon="-106.562988120">
        <ele>2565.000</ele>
        <time>2019-07-25T18:40:39Z</time>
      </trkpt>
      <trkpt lat="35.975414580" lon="-106.562946070">
        <ele>2565.000</ele>
        <time>2019-07-25T18:40:42Z</time>
      </trkpt>
      <trkpt lat="35.975408700" lon="-106.562901830">
        <ele>2565.000</ele>
        <time>2019-07-25T18:40:45Z</time>
      </trkpt>
      <trkpt lat="35.975404590" lon="-106.562846650">
        <ele>2566.000</ele>
        <time>2019-07-25T18:40:49Z</time>
      </trkpt>
      <trkpt lat="35.975397140" lon="-106.562800880">
        <ele>2567.000</ele>
        <time>2019-07-25T18:40:53Z</time>
      </trkpt>
      <trkpt lat="35.975388140" lon="-106.562750740">
        <ele>2567.000</ele>
        <time>2019-07-25T18:40:57Z</time>
      </trkpt>
      <trkpt lat="35.975382510" lon="-106.562700250">
        <ele>2567.000</ele>
        <time>2019-07-25T18:41:01Z</time>
      </trkpt>
      <trkpt lat="35.975382040" lon="-106.562651520">
        <ele>2567.000</ele>
        <time>2019-07-25T18:41:05Z</time>
      </trkpt>
      <trkpt lat="35.975374630" lon="-106.562605230">
        <ele>2567.000</ele>
        <time>2019-07-25T18:41:09Z</time>
      </trkpt>
      <trkpt lat="35.975360440" lon="-106.562552140">
        <ele>2566.000</ele>
        <time>2019-07-25T18:41:13Z</time>
      </trkpt>
      <trkpt lat="35.975348530" lon="-106.562508850">
        <ele>2568.000</ele>
        <time>2019-07-25T18:41:17Z</time>
      </trkpt>
      <trkpt lat="35.975331990" lon="-106.562464380">
        <ele>2568.000</ele>
        <time>2019-07-25T18:41:21Z</time>
      </trkpt>
      <trkpt lat="35.975327300" lon="-106.562414330">
        <ele>2568.000</ele>
        <time>2019-07-25T18:41:25Z</time>
      </trkpt>
      <trkpt lat="35.975317950" lon="-106.562370420">
        <ele>2568.000</ele>
        <time>2019-07-25T18:41:29Z</time>
      </trkpt>
      <trkpt lat="35.975312970" lon="-106.562321750">
        <ele>2568.000</ele>
        <time>2019-07-25T18:41:34Z</time>
      </trkpt>
      <trkpt lat="35.975305360" lon="-106.562275630">
        <ele>2569.000</ele>
        <time>2019-07-25T18:41:38Z</time>
      </trkpt>
      <trkpt lat="35.975299220" lon="-106.562231810">
        <ele>2568.000</ele>
        <time>2019-07-25T18:41:42Z</time>
      </trkpt>
      <trkpt lat="35.975285460" lon="-106.562185170">
        <ele>2568.000</ele>
        <time>2019-07-25T18:41:46Z</time>
      </trkpt>
      <trkpt lat="35.975284280" lon="-106.562137010">
        <ele>2569.000</ele>
        <time>2019-07-25T18:41:51Z</time>
      </trkpt>
      <trkpt lat="35.975278870" lon="-106.562082270">
        <ele>2570.000</ele>
        <time>2019-07-25T18:41:56Z</time>
      </trkpt>
      <trkpt lat="35.975268760" lon="-106.562026970">
        <ele>2569.000</ele>
        <time>2019-07-25T18:42:01Z</time>
      </trkpt>
      <trkpt lat="35.975256320" lon="-106.561982810">
        <ele>2568.000</ele>
        <time>2019-07-25T18:42:05Z</time>
      </trkpt>
      <trkpt lat="35.975255360" lon="-106.561931020">
        <ele>2570.000</ele>
        <time>2019-07-25T18:42:10Z</time>
      </trkpt>
      <trkpt lat="35.975248230" lon="-106.561885100">
        <ele>2570.000</ele>
        <time>2019-07-25T18:42:14Z</time>
      </trkpt>
      <trkpt lat="35.975239950" lon="-106.561838210">
        <ele>2569.000</ele>
        <time>2019-07-25T18:42:18Z</time>
      </trkpt>
      <trkpt lat="35.975230130" lon="-106.561783500">
        <ele>2569.000</ele>
        <time>2019-07-25T18:42:23Z</time>
      </trkpt>
      <trkpt lat="35.975216730" lon="-106.561736780">
        <ele>2570.000</ele>
        <time>2019-07-25T18:42:27Z</time>
      </trkpt>
      <trkpt lat="35.975203130" lon="-106.561684950">
        <ele>2570.000</ele>
        <time>2019-07-25T18:42:32Z</time>
      </trkpt>
      <trkpt lat="35.975202620" lon="-106.561635140">
        <ele>2570.000</ele>
        <time>2019-07-25T18:42:38Z</time>
      </trkpt>
      <trkpt lat="35.975211890" lon="-106.561586520">
        <ele>2570.000</ele>
        <time>2019-07-25T18:42:42Z</time>
      </trkpt>
      <trkpt lat="35.975204560" lon="-106.561534930">
        <ele>2570.000</ele>
        <time>2019-07-25T18:42:46Z</time>
      </trkpt>
      <trkpt lat="35.975200670" lon="-106.561481320">
        <ele>2570.000</ele>
        <time>2019-07-25T18:42:51Z</time>
      </trkpt>
      <trkpt lat="35.975183470" lon="-106.561437150">
        <ele>2569.000</ele>
        <time>2019-07-25T18:42:55Z</time>
      </trkpt>
      <trkpt lat="35.975172250" lon="-106.561390580">
        <ele>2570.000</ele>
        <time>2019-07-25T18:42:59Z</time>
      </trkpt>
      <trkpt lat="35.975161220" lon="-106.561347260">
        <ele>2571.000</ele>
        <time>2019-07-25T18:43:03Z</time>
      </trkpt>
      <trkpt lat="35.975149280" lon="-106.561296030">
        <ele>2571.000</ele>
        <time>2019-07-25T18:43:08Z</time>
      </trkpt>
      <trkpt lat="35.975142190" lon="-106.561249770">
        <ele>2573.000</ele>
        <time>2019-07-25T18:43:13Z</time>
      </trkpt>
      <trkpt lat="35.975140410" lon="-106.561201730">
        <ele>2575.000</ele>
        <time>2019-07-25T18:43:18Z</time>
      </trkpt>
      <trkpt lat="35.975138390" lon="-106.561153230">
        <ele>2574.000</ele>
        <time>2019-07-25T18:43:22Z</time>
      </trkpt>
      <trkpt lat="35.975127160" lon="-106.561102570">
        <ele>2575.000</ele>
        <time>2019-07-25T18:43:27Z</time>
      </trkpt>
      <trkpt lat="35.975111600" lon="-106.561055740">
        <ele>2575.000</ele>
        <time>2019-07-25T18:43:31Z</time>
      </trkpt>
      <trkpt lat="35.975100400" lon="-106.561011830">
        <ele>2576.000</ele>
        <time>2019-07-25T18:43:35Z</time>
      </trkpt>
      <trkpt lat="35.975090440" lon="-106.560960740">
        <ele>2577.000</ele>
        <time>2019-07-25T18:43:40Z</time>
      </trkpt>
      <trkpt lat="35.975072430" lon="-106.560915840">
        <ele>2576.000</ele>
        <time>2019-07-25T18:43:44Z</time>
      </trkpt>
      <trkpt lat="35.975067950" lon="-106.560871000">
        <ele>2577.000</ele>
        <time>2019-07-25T18:43:48Z</time>
      </trkpt>
      <trkpt lat="35.975060300" lon="-106.560826270">
        <ele>2577.000</ele>
        <time>2019-07-25T18:43:52Z</time>
      </trkpt>
      <trkpt lat="35.975058120" lon="-106.560777110">
        <ele>2578.000</ele>
        <time>2019-07-25T18:43:57Z</time>
      </trkpt>
      <trkpt lat="35.975050000" lon="-106.560724140">
        <ele>2578.000</ele>
        <time>2019-07-25T18:44:08Z</time>
      </trkpt>
      <trkpt lat="35.975044200" lon="-106.560680180">
        <ele>2577.000</ele>
        <time>2019-07-25T18:44:12Z</time>
      </trkpt>
      <trkpt lat="35.975042150" lon="-106.560634250">
        <ele>2576.000</ele>
        <time>2019-07-25T18:48:56Z</time>
      </trkpt>
      <trkpt lat="35.975036630" lon="-106.560581140">
        <ele>2576.000</ele>
        <time>2019-07-25T18:49:03Z</time>
      </trkpt>
      <trkpt lat="35.975020250" lon="-106.560532440">
        <ele>2575.000</ele>
        <time>2019-07-25T18:49:08Z</time>
      </trkpt>
      <trkpt lat="35.975009640" lon="-106.560478400">
        <ele>2575.000</ele>
        <time>2019-07-25T18:49:13Z</time>
      </trkpt>
      <trkpt lat="35.975003070" lon="-106.560428420">
        <ele>2575.000</ele>
        <time>2019-07-25T18:49:17Z</time>
      </trkpt>
      <trkpt lat="35.974988480" lon="-106.560378310">
        <ele>2574.000</ele>
        <time>2019-07-25T18:49:21Z</time>
      </trkpt>
      <trkpt lat="35.974981520" lon="-106.560326600">
        <ele>2573.000</ele>
        <time>2019-07-25T18:49:26Z</time>
      </trkpt>
      <trkpt lat="35.974975110" lon="-106.560271040">
        <ele>2573.000</ele>
        <time>2019-07-25T18:49:32Z</time>
      </trkpt>
      <trkpt lat="35.974971730" lon="-106.560222110">
        <ele>2573.000</ele>
        <time>2019-07-25T18:49:37Z</time>
      </trkpt>
      <trkpt lat="35.974960540" lon="-106.560171570">
        <ele>2572.000</ele>
        <time>2019-07-25T18:49:54Z</time>
      </trkpt>
      <trkpt lat="35.974961710" lon="-106.560120070">
        <ele>2572.000</ele>
        <time>2019-07-25T18:49:58Z</time>
      </trkpt>
      <trkpt lat="35.974969390" lon="-106.560075010">
        <ele>2571.000</ele>
        <time>2019-07-25T18:50:16Z</time>
      </trkpt>
      <trkpt lat="35.974967290" lon="-106.560027580">
        <ele>2572.000</ele>
        <time>2019-07-25T18:50:21Z</time>
      </trkpt>
      <trkpt lat="35.974948270" lon="-106.559984960">
        <ele>2572.000</ele>
        <time>2019-07-25T18:50:24Z</time>
      </trkpt>
      <trkpt lat="35.974939110" lon="-106.559935880">
        <ele>2573.000</ele>
        <time>2019-07-25T18:50:28Z</time>
      </trkpt>
      <trkpt lat="35.974940300" lon="-106.559879610">
        <ele>2573.000</ele>
        <time>2019-07-25T18:50:32Z</time>
      </trkpt>
      <trkpt lat="35.974951450" lon="-106.559828690">
        <ele>2574.000</ele>
        <time>2019-07-25T18:50:37Z</time>
      </trkpt>
      <trkpt lat="35.974955800" lon="-106.559782940">
        <ele>2573.000</ele>
        <time>2019-07-25T18:50:42Z</time>
      </trkpt>
      <trkpt lat="35.974935910" lon="-106.559739220">
        <ele>2574.000</ele>
        <time>2019-07-25T18:50:48Z</time>
      </trkpt>
      <trkpt lat="35.974954620" lon="-106.559697860">
        <ele>2573.000</ele>
        <time>2019-07-25T18:51:01Z</time>
      </trkpt>
      <trkpt lat="35.974980090" lon="-106.559651140">
        <ele>2572.000</ele>
        <time>2019-07-25T18:51:06Z</time>
      </trkpt>
      <trkpt lat="35.974995150" lon="-106.559600340">
        <ele>2573.000</ele>
        <time>2019-07-25T18:51:10Z</time>
      </trkpt>
      <trkpt lat="35.975009300" lon="-106.559558910">
        <ele>2572.000</ele>
        <time>2019-07-25T18:51:14Z</time>
      </trkpt>
      <trkpt lat="35.975025300" lon="-106.559516600">
        <ele>2572.000</ele>
        <time>2019-07-25T18:51:18Z</time>
      </trkpt>
      <trkpt lat="35.975040980" lon="-106.559470540">
        <ele>2572.000</ele>
        <time>2019-07-25T18:51:23Z</time>
      </trkpt>
      <trkpt lat="35.975034090" lon="-106.559425390">
        <ele>2572.000</ele>
        <time>2019-07-25T18:51:31Z</time>
      </trkpt>
      <trkpt lat="35.975007370" lon="-106.559390490">
        <ele>2573.000</ele>
        <time>2019-07-25T18:52:10Z</time>
      </trkpt>
      <trkpt lat="35.974979310" lon="-106.559419280">
        <ele>2574.000</ele>
        <time>2019-07-25T19:00:49Z</time>
      </trkpt>
      <trkpt lat="35.974987380" lon="-106.559374770">
        <ele>2574.000</ele>
        <time>2019-07-25T19:01:07Z</time>
      </trkpt>
      <trkpt lat="35.975021730" lon="-106.559360620">
        <ele>2575.000</ele>
        <time>2019-07-25T19:02:20Z</time>
      </trkpt>
      <trkpt lat="35.975056990" lon="-106.559345820">
        <ele>2575.000</ele>
        <time>2019-07-25T19:02:31Z</time>
      </trkpt>
      <trkpt lat="35.975096270" lon="-106.559302480">
        <ele>2575.000</ele>
        <time>2019-07-25T19:02:34Z</time>
      </trkpt>
      <trkpt lat="35.975121210" lon="-106.559260070">
        <ele>2575.000</ele>
        <time>2019-07-25T19:02:36Z</time>
      </trkpt>
      <trkpt lat="35.975145080" lon="-106.559204600">
        <ele>2575.000</ele>
        <time>2019-07-25T19:02:38Z</time>
      </trkpt>
      <trkpt lat="35.975164490" lon="-106.559146360">
        <ele>2574.000</ele>
        <time>2019-07-25T19:02:40Z</time>
      </trkpt>
      <trkpt lat="35.975182870" lon="-106.559086280">
        <ele>2574.000</ele>
        <time>2019-07-25T19:02:42Z</time>
      </trkpt>
      <trkpt lat="35.975210030" lon="-106.559013190">
        <ele>2574.000</ele>
        <time>2019-07-25T19:02:44Z</time>
      </trkpt>
      <trkpt lat="35.975226840" lon="-106.558943600">
        <ele>2573.000</ele>
        <time>2019-07-25T19:02:46Z</time>
      </trkpt>
      <trkpt lat="35.975235110" lon="-106.558879720">
        <ele>2573.000</ele>
        <time>2019-07-25T19:02:48Z</time>
      </trkpt>
      <trkpt lat="35.975235390" lon="-106.558822720">
        <ele>2572.000</ele>
        <time>2019-07-25T19:02:50Z</time>
      </trkpt>
      <trkpt lat="35.975240160" lon="-106.558773040">
        <ele>2572.000</ele>
        <time>2019-07-25T19:02:52Z</time>
      </trkpt>
      <trkpt lat="35.975246720" lon="-106.558705870">
        <ele>2571.000</ele>
        <time>2019-07-25T19:02:55Z</time>
      </trkpt>
      <trkpt lat="35.975259700" lon="-106.558655120">
        <ele>2571.000</ele>
        <time>2019-07-25T19:02:58Z</time>
      </trkpt>
      <trkpt lat="35.975273230" lon="-106.558645780">
        <ele>2572.000</ele>
        <time>2019-07-25T19:03:12Z</time>
      </trkpt>
    </trkseg>
  </trk>
</gpx>
